<?xml version="1.0" encoding="UTF-8" standalone="no" ?>
<gpx xmlns="http://www.topografix.com/GPX/1/1" xmlns:xsi="http://www.w3.org/2001/XMLSchema-instance" xsi:schemaLocation="http://www.topografix.com/GPX/1/1 http://www.topografix.com/GPX/1/1/gpx.xsd" version="1.1" creator="VisuGPX - https://www.visugpx.com">
  <metadata>
    <name>ASLPM marche Saint Sauveur le 18 janvier 2016</name>
    <desc><![CDATA[ASLPM marche Saint Sauveur le 18 01 2016
]]></desc>
  </metadata>
  <trk>
    <name><![CDATA[Saint-Sauveur-d'Aunis Course à pied]]></name>
    <trkseg>
      <trkpt lat="46.21194" lon="-0.8846">
        <ele>19</ele>
        <time>2016-01-18T08:24:25.000Z</time>
      </trkpt>
      <trkpt lat="46.21193" lon="-0.8846">
        <ele>19</ele>
        <time>2016-01-18T08:24:26.000Z</time>
      </trkpt>
      <trkpt lat="46.21191" lon="-0.8846">
        <ele>19</ele>
        <time>2016-01-18T08:24:28.000Z</time>
      </trkpt>
      <trkpt lat="46.2119" lon="-0.8846">
        <ele>19</ele>
        <time>2016-01-18T08:24:29.000Z</time>
      </trkpt>
      <trkpt lat="46.21188" lon="-0.8846">
        <ele>19</ele>
        <time>2016-01-18T08:24:31.000Z</time>
      </trkpt>
      <trkpt lat="46.21176" lon="-0.88454">
        <ele>19</ele>
        <time>2016-01-18T08:24:41.000Z</time>
      </trkpt>
      <trkpt lat="46.21168" lon="-0.88452">
        <ele>19</ele>
        <time>2016-01-18T08:24:48.000Z</time>
      </trkpt>
      <trkpt lat="46.21151" lon="-0.88446">
        <ele>19.799999237061</ele>
        <time>2016-01-18T08:25:04.000Z</time>
      </trkpt>
      <trkpt lat="46.21133" lon="-0.88437">
        <ele>20.39999961853</ele>
        <time>2016-01-18T08:25:22.000Z</time>
      </trkpt>
      <trkpt lat="46.21122" lon="-0.88432">
        <ele>20.799999237061</ele>
        <time>2016-01-18T08:25:31.000Z</time>
      </trkpt>
      <trkpt lat="46.21104" lon="-0.88426">
        <ele>21</ele>
        <time>2016-01-18T08:25:47.000Z</time>
      </trkpt>
      <trkpt lat="46.21085" lon="-0.8842">
        <ele>20.60000038147</ele>
        <time>2016-01-18T08:26:04.000Z</time>
      </trkpt>
      <trkpt lat="46.21076" lon="-0.88419">
        <ele>20.39999961853</ele>
        <time>2016-01-18T08:26:12.000Z</time>
      </trkpt>
      <trkpt lat="46.21071" lon="-0.88418">
        <ele>20.200000762939</ele>
        <time>2016-01-18T08:26:16.000Z</time>
      </trkpt>
      <trkpt lat="46.21062" lon="-0.88417">
        <ele>20</ele>
        <time>2016-01-18T08:26:24.000Z</time>
      </trkpt>
      <trkpt lat="46.21052" lon="-0.88412">
        <ele>20</ele>
        <time>2016-01-18T08:26:32.000Z</time>
      </trkpt>
      <trkpt lat="46.21037" lon="-0.88425">
        <ele>20</ele>
        <time>2016-01-18T08:26:52.000Z</time>
      </trkpt>
      <trkpt lat="46.2102" lon="-0.88437">
        <ele>20</ele>
        <time>2016-01-18T08:27:07.000Z</time>
      </trkpt>
      <trkpt lat="46.21002" lon="-0.88447">
        <ele>20</ele>
        <time>2016-01-18T08:27:23.000Z</time>
      </trkpt>
      <trkpt lat="46.20986" lon="-0.88459">
        <ele>20</ele>
        <time>2016-01-18T08:27:37.000Z</time>
      </trkpt>
      <trkpt lat="46.20968" lon="-0.88469">
        <ele>20</ele>
        <time>2016-01-18T08:27:51.000Z</time>
      </trkpt>
      <trkpt lat="46.20951" lon="-0.88477">
        <ele>20</ele>
        <time>2016-01-18T08:28:05.000Z</time>
      </trkpt>
      <trkpt lat="46.20949" lon="-0.88479">
        <ele>20</ele>
        <time>2016-01-18T08:28:07.000Z</time>
      </trkpt>
      <trkpt lat="46.20931" lon="-0.88489">
        <ele>20</ele>
        <time>2016-01-18T08:28:22.000Z</time>
      </trkpt>
      <trkpt lat="46.20913" lon="-0.88499">
        <ele>20</ele>
        <time>2016-01-18T08:28:37.000Z</time>
      </trkpt>
      <trkpt lat="46.20894" lon="-0.88506">
        <ele>20</ele>
        <time>2016-01-18T08:28:51.000Z</time>
      </trkpt>
      <trkpt lat="46.20877" lon="-0.88514">
        <ele>19.799999237061</ele>
        <time>2016-01-18T08:29:05.000Z</time>
      </trkpt>
      <trkpt lat="46.20859" lon="-0.88522">
        <ele>19.60000038147</ele>
        <time>2016-01-18T08:29:19.000Z</time>
      </trkpt>
      <trkpt lat="46.20841" lon="-0.8853">
        <ele>19.39999961853</ele>
        <time>2016-01-18T08:29:33.000Z</time>
      </trkpt>
      <trkpt lat="46.20834" lon="-0.88533">
        <ele>19.200000762939</ele>
        <time>2016-01-18T08:29:39.000Z</time>
      </trkpt>
      <trkpt lat="46.20828" lon="-0.88535">
        <ele>19.200000762939</ele>
        <time>2016-01-18T08:29:44.000Z</time>
      </trkpt>
      <trkpt lat="46.2081" lon="-0.88542">
        <ele>19.200000762939</ele>
        <time>2016-01-18T08:29:58.000Z</time>
      </trkpt>
      <trkpt lat="46.20805" lon="-0.88544">
        <ele>19.39999961853</ele>
        <time>2016-01-18T08:30:02.000Z</time>
      </trkpt>
      <trkpt lat="46.20788" lon="-0.88552">
        <ele>19.60000038147</ele>
        <time>2016-01-18T08:30:15.000Z</time>
      </trkpt>
      <trkpt lat="46.2077" lon="-0.8856">
        <ele>20</ele>
        <time>2016-01-18T08:30:28.000Z</time>
      </trkpt>
      <trkpt lat="46.20769" lon="-0.88561">
        <ele>20</ele>
        <time>2016-01-18T08:30:29.000Z</time>
      </trkpt>
      <trkpt lat="46.20752" lon="-0.88569">
        <ele>20.200000762939</ele>
        <time>2016-01-18T08:30:43.000Z</time>
      </trkpt>
      <trkpt lat="46.20749" lon="-0.88571">
        <ele>20.200000762939</ele>
        <time>2016-01-18T08:30:48.000Z</time>
      </trkpt>
      <trkpt lat="46.20732" lon="-0.88577">
        <ele>20.39999961853</ele>
        <time>2016-01-18T08:31:05.000Z</time>
      </trkpt>
      <trkpt lat="46.20714" lon="-0.88587">
        <ele>20.60000038147</ele>
        <time>2016-01-18T08:31:19.000Z</time>
      </trkpt>
      <trkpt lat="46.20702" lon="-0.88592">
        <ele>20.799999237061</ele>
        <time>2016-01-18T08:31:28.000Z</time>
      </trkpt>
      <trkpt lat="46.20684" lon="-0.886">
        <ele>21</ele>
        <time>2016-01-18T08:31:43.000Z</time>
      </trkpt>
      <trkpt lat="46.20667" lon="-0.8861">
        <ele>21</ele>
        <time>2016-01-18T08:31:57.000Z</time>
      </trkpt>
      <trkpt lat="46.20654" lon="-0.88616">
        <ele>21</ele>
        <time>2016-01-18T08:32:08.000Z</time>
      </trkpt>
      <trkpt lat="46.20647" lon="-0.8862">
        <ele>21</ele>
        <time>2016-01-18T08:32:15.000Z</time>
      </trkpt>
      <trkpt lat="46.20629" lon="-0.88627">
        <ele>21</ele>
        <time>2016-01-18T08:32:29.000Z</time>
      </trkpt>
      <trkpt lat="46.20612" lon="-0.88637">
        <ele>21</ele>
        <time>2016-01-18T08:32:43.000Z</time>
      </trkpt>
      <trkpt lat="46.20595" lon="-0.88646">
        <ele>21</ele>
        <time>2016-01-18T08:32:56.000Z</time>
      </trkpt>
      <trkpt lat="46.20578" lon="-0.88656">
        <ele>21</ele>
        <time>2016-01-18T08:33:09.000Z</time>
      </trkpt>
      <trkpt lat="46.20573" lon="-0.88659">
        <ele>21</ele>
        <time>2016-01-18T08:33:13.000Z</time>
      </trkpt>
      <trkpt lat="46.20556" lon="-0.88668">
        <ele>21.200000762939</ele>
        <time>2016-01-18T08:33:32.000Z</time>
      </trkpt>
      <trkpt lat="46.2054" lon="-0.88681">
        <ele>21.60000038147</ele>
        <time>2016-01-18T08:33:48.000Z</time>
      </trkpt>
      <trkpt lat="46.20522" lon="-0.88689">
        <ele>22</ele>
        <time>2016-01-18T08:34:07.000Z</time>
      </trkpt>
      <trkpt lat="46.20504" lon="-0.88696">
        <ele>22.39999961853</ele>
        <time>2016-01-18T08:34:27.000Z</time>
      </trkpt>
      <trkpt lat="46.20487" lon="-0.88704">
        <ele>22.799999237061</ele>
        <time>2016-01-18T08:34:48.000Z</time>
      </trkpt>
      <trkpt lat="46.20471" lon="-0.88716">
        <ele>23</ele>
        <time>2016-01-18T08:35:09.000Z</time>
      </trkpt>
      <trkpt lat="46.20453" lon="-0.8872">
        <ele>23</ele>
        <time>2016-01-18T08:35:27.000Z</time>
      </trkpt>
      <trkpt lat="46.20451" lon="-0.88722">
        <ele>23</ele>
        <time>2016-01-18T08:35:28.000Z</time>
      </trkpt>
      <trkpt lat="46.20449" lon="-0.88724">
        <ele>23</ele>
        <time>2016-01-18T08:35:30.000Z</time>
      </trkpt>
      <trkpt lat="46.20449" lon="-0.88731">
        <ele>23</ele>
        <time>2016-01-18T08:35:35.000Z</time>
      </trkpt>
      <trkpt lat="46.20449" lon="-0.88734">
        <ele>23.200000762939</ele>
        <time>2016-01-18T08:35:37.000Z</time>
      </trkpt>
      <trkpt lat="46.20449" lon="-0.88761">
        <ele>23.39999961853</ele>
        <time>2016-01-18T08:35:52.000Z</time>
      </trkpt>
      <trkpt lat="46.20451" lon="-0.88787">
        <ele>23.39999961853</ele>
        <time>2016-01-18T08:36:09.000Z</time>
      </trkpt>
      <trkpt lat="46.20453" lon="-0.88813">
        <ele>23.39999961853</ele>
        <time>2016-01-18T08:36:25.000Z</time>
      </trkpt>
      <trkpt lat="46.20452" lon="-0.88837">
        <ele>23.39999961853</ele>
        <time>2016-01-18T08:36:38.000Z</time>
      </trkpt>
      <trkpt lat="46.20452" lon="-0.88843">
        <ele>23.39999961853</ele>
        <time>2016-01-18T08:36:42.000Z</time>
      </trkpt>
      <trkpt lat="46.20452" lon="-0.8887">
        <ele>23.39999961853</ele>
        <time>2016-01-18T08:36:55.000Z</time>
      </trkpt>
      <trkpt lat="46.2045" lon="-0.88896">
        <ele>23.200000762939</ele>
        <time>2016-01-18T08:37:08.000Z</time>
      </trkpt>
      <trkpt lat="46.20448" lon="-0.88922">
        <ele>23</ele>
        <time>2016-01-18T08:37:21.000Z</time>
      </trkpt>
      <trkpt lat="46.20445" lon="-0.88949">
        <ele>22.60000038147</ele>
        <time>2016-01-18T08:37:34.000Z</time>
      </trkpt>
      <trkpt lat="46.20439" lon="-0.88975">
        <ele>22.39999961853</ele>
        <time>2016-01-18T08:37:47.000Z</time>
      </trkpt>
      <trkpt lat="46.20432" lon="-0.89">
        <ele>22.60000038147</ele>
        <time>2016-01-18T08:37:59.000Z</time>
      </trkpt>
      <trkpt lat="46.20423" lon="-0.89023">
        <ele>22.60000038147</ele>
        <time>2016-01-18T08:38:11.000Z</time>
      </trkpt>
      <trkpt lat="46.20416" lon="-0.89047">
        <ele>22.799999237061</ele>
        <time>2016-01-18T08:38:23.000Z</time>
      </trkpt>
      <trkpt lat="46.20407" lon="-0.89071">
        <ele>22.799999237061</ele>
        <time>2016-01-18T08:38:37.000Z</time>
      </trkpt>
      <trkpt lat="46.20396" lon="-0.89091">
        <ele>22.60000038147</ele>
        <time>2016-01-18T08:38:50.000Z</time>
      </trkpt>
      <trkpt lat="46.2039" lon="-0.89105">
        <ele>22.39999961853</ele>
        <time>2016-01-18T08:38:59.000Z</time>
      </trkpt>
      <trkpt lat="46.20387" lon="-0.89113">
        <ele>22.39999961853</ele>
        <time>2016-01-18T08:39:04.000Z</time>
      </trkpt>
      <trkpt lat="46.20387" lon="-0.89139">
        <ele>22</ele>
        <time>2016-01-18T08:39:17.000Z</time>
      </trkpt>
      <trkpt lat="46.20398" lon="-0.89161">
        <ele>22</ele>
        <time>2016-01-18T08:39:30.000Z</time>
      </trkpt>
      <trkpt lat="46.2041" lon="-0.89182">
        <ele>22</ele>
        <time>2016-01-18T08:39:43.000Z</time>
      </trkpt>
      <trkpt lat="46.20421" lon="-0.89204">
        <ele>22</ele>
        <time>2016-01-18T08:39:56.000Z</time>
      </trkpt>
      <trkpt lat="46.20421" lon="-0.89206">
        <ele>22</ele>
        <time>2016-01-18T08:39:57.000Z</time>
      </trkpt>
      <trkpt lat="46.20431" lon="-0.89228">
        <ele>22</ele>
        <time>2016-01-18T08:40:10.000Z</time>
      </trkpt>
      <trkpt lat="46.20442" lon="-0.89248">
        <ele>21.799999237061</ele>
        <time>2016-01-18T08:40:23.000Z</time>
      </trkpt>
      <trkpt lat="46.2045" lon="-0.89272">
        <ele>21.60000038147</ele>
        <time>2016-01-18T08:40:36.000Z</time>
      </trkpt>
      <trkpt lat="46.20458" lon="-0.89297">
        <ele>21.799999237061</ele>
        <time>2016-01-18T08:40:50.000Z</time>
      </trkpt>
      <trkpt lat="46.20466" lon="-0.89322">
        <ele>21.799999237061</ele>
        <time>2016-01-18T08:41:03.000Z</time>
      </trkpt>
      <trkpt lat="46.20474" lon="-0.89346">
        <ele>21.60000038147</ele>
        <time>2016-01-18T08:41:16.000Z</time>
      </trkpt>
      <trkpt lat="46.20483" lon="-0.89371">
        <ele>21.200000762939</ele>
        <time>2016-01-18T08:41:29.000Z</time>
      </trkpt>
      <trkpt lat="46.20492" lon="-0.89394">
        <ele>21.200000762939</ele>
        <time>2016-01-18T08:41:42.000Z</time>
      </trkpt>
      <trkpt lat="46.20502" lon="-0.89416">
        <ele>21.200000762939</ele>
        <time>2016-01-18T08:41:54.000Z</time>
      </trkpt>
      <trkpt lat="46.20512" lon="-0.89439">
        <ele>21.39999961853</ele>
        <time>2016-01-18T08:42:07.000Z</time>
      </trkpt>
      <trkpt lat="46.20523" lon="-0.89461">
        <ele>21.60000038147</ele>
        <time>2016-01-18T08:42:20.000Z</time>
      </trkpt>
      <trkpt lat="46.20532" lon="-0.89485">
        <ele>21.60000038147</ele>
        <time>2016-01-18T08:42:33.000Z</time>
      </trkpt>
      <trkpt lat="46.20533" lon="-0.8951">
        <ele>21.39999961853</ele>
        <time>2016-01-18T08:42:47.000Z</time>
      </trkpt>
      <trkpt lat="46.20517" lon="-0.89525">
        <ele>21.200000762939</ele>
        <time>2016-01-18T08:43:00.000Z</time>
      </trkpt>
      <trkpt lat="46.20501" lon="-0.89541">
        <ele>21.200000762939</ele>
        <time>2016-01-18T08:43:13.000Z</time>
      </trkpt>
      <trkpt lat="46.20486" lon="-0.89555">
        <ele>21</ele>
        <time>2016-01-18T08:43:25.000Z</time>
      </trkpt>
      <trkpt lat="46.20471" lon="-0.8957">
        <ele>20.60000038147</ele>
        <time>2016-01-18T08:43:38.000Z</time>
      </trkpt>
      <trkpt lat="46.20456" lon="-0.89584">
        <ele>20.200000762939</ele>
        <time>2016-01-18T08:43:51.000Z</time>
      </trkpt>
      <trkpt lat="46.2044" lon="-0.896">
        <ele>19.60000038147</ele>
        <time>2016-01-18T08:44:04.000Z</time>
      </trkpt>
      <trkpt lat="46.20424" lon="-0.89615">
        <ele>19</ele>
        <time>2016-01-18T08:44:16.000Z</time>
      </trkpt>
      <trkpt lat="46.20408" lon="-0.8963">
        <ele>18.39999961853</ele>
        <time>2016-01-18T08:44:29.000Z</time>
      </trkpt>
      <trkpt lat="46.20393" lon="-0.89644">
        <ele>18</ele>
        <time>2016-01-18T08:44:41.000Z</time>
      </trkpt>
      <trkpt lat="46.20377" lon="-0.89658">
        <ele>18</ele>
        <time>2016-01-18T08:44:53.000Z</time>
      </trkpt>
      <trkpt lat="46.20362" lon="-0.89674">
        <ele>18</ele>
        <time>2016-01-18T08:45:06.000Z</time>
      </trkpt>
      <trkpt lat="46.20347" lon="-0.89689">
        <ele>18</ele>
        <time>2016-01-18T08:45:19.000Z</time>
      </trkpt>
      <trkpt lat="46.20331" lon="-0.89704">
        <ele>18</ele>
        <time>2016-01-18T08:45:32.000Z</time>
      </trkpt>
      <trkpt lat="46.20315" lon="-0.89719">
        <ele>18</ele>
        <time>2016-01-18T08:45:45.000Z</time>
      </trkpt>
      <trkpt lat="46.20298" lon="-0.89733">
        <ele>18</ele>
        <time>2016-01-18T08:45:58.000Z</time>
      </trkpt>
      <trkpt lat="46.20283" lon="-0.89749">
        <ele>18</ele>
        <time>2016-01-18T08:46:10.000Z</time>
      </trkpt>
      <trkpt lat="46.20267" lon="-0.89764">
        <ele>18</ele>
        <time>2016-01-18T08:46:23.000Z</time>
      </trkpt>
      <trkpt lat="46.20251" lon="-0.89779">
        <ele>18</ele>
        <time>2016-01-18T08:46:35.000Z</time>
      </trkpt>
      <trkpt lat="46.20236" lon="-0.89793">
        <ele>18</ele>
        <time>2016-01-18T08:46:47.000Z</time>
      </trkpt>
      <trkpt lat="46.2022" lon="-0.89808">
        <ele>18</ele>
        <time>2016-01-18T08:46:59.000Z</time>
      </trkpt>
      <trkpt lat="46.20205" lon="-0.89823">
        <ele>18</ele>
        <time>2016-01-18T08:47:11.000Z</time>
      </trkpt>
      <trkpt lat="46.2019" lon="-0.89837">
        <ele>18</ele>
        <time>2016-01-18T08:47:23.000Z</time>
      </trkpt>
      <trkpt lat="46.20175" lon="-0.89852">
        <ele>18</ele>
        <time>2016-01-18T08:47:35.000Z</time>
      </trkpt>
      <trkpt lat="46.2016" lon="-0.89867">
        <ele>18</ele>
        <time>2016-01-18T08:47:47.000Z</time>
      </trkpt>
      <trkpt lat="46.20143" lon="-0.8988">
        <ele>18</ele>
        <time>2016-01-18T08:47:59.000Z</time>
      </trkpt>
      <trkpt lat="46.20128" lon="-0.89894">
        <ele>17.799999237061</ele>
        <time>2016-01-18T08:48:10.000Z</time>
      </trkpt>
      <trkpt lat="46.20113" lon="-0.8991">
        <ele>17.60000038147</ele>
        <time>2016-01-18T08:48:22.000Z</time>
      </trkpt>
      <trkpt lat="46.20097" lon="-0.89926">
        <ele>17.200000762939</ele>
        <time>2016-01-18T08:48:35.000Z</time>
      </trkpt>
      <trkpt lat="46.20082" lon="-0.89941">
        <ele>16.799999237061</ele>
        <time>2016-01-18T08:48:47.000Z</time>
      </trkpt>
      <trkpt lat="46.20066" lon="-0.89956">
        <ele>16.39999961853</ele>
        <time>2016-01-18T08:48:59.000Z</time>
      </trkpt>
      <trkpt lat="46.20049" lon="-0.8997">
        <ele>16</ele>
        <time>2016-01-18T08:49:11.000Z</time>
      </trkpt>
      <trkpt lat="46.20034" lon="-0.89984">
        <ele>16</ele>
        <time>2016-01-18T08:49:23.000Z</time>
      </trkpt>
      <trkpt lat="46.20018" lon="-0.89999">
        <ele>16</ele>
        <time>2016-01-18T08:49:35.000Z</time>
      </trkpt>
      <trkpt lat="46.20003" lon="-0.90014">
        <ele>16</ele>
        <time>2016-01-18T08:49:47.000Z</time>
      </trkpt>
      <trkpt lat="46.19987" lon="-0.90031">
        <ele>16</ele>
        <time>2016-01-18T08:50:00.000Z</time>
      </trkpt>
      <trkpt lat="46.19972" lon="-0.90045">
        <ele>15.800000190735</ele>
        <time>2016-01-18T08:50:12.000Z</time>
      </trkpt>
      <trkpt lat="46.19957" lon="-0.9006">
        <ele>15.199999809265</ele>
        <time>2016-01-18T08:50:24.000Z</time>
      </trkpt>
      <trkpt lat="46.19941" lon="-0.90076">
        <ele>14.60000038147</ele>
        <time>2016-01-18T08:50:36.000Z</time>
      </trkpt>
      <trkpt lat="46.19926" lon="-0.90089">
        <ele>14</ele>
        <time>2016-01-18T08:50:48.000Z</time>
      </trkpt>
      <trkpt lat="46.19909" lon="-0.90104">
        <ele>13.60000038147</ele>
        <time>2016-01-18T08:51:01.000Z</time>
      </trkpt>
      <trkpt lat="46.19893" lon="-0.9012">
        <ele>13</ele>
        <time>2016-01-18T08:51:13.000Z</time>
      </trkpt>
      <trkpt lat="46.19878" lon="-0.90133">
        <ele>12.800000190735</ele>
        <time>2016-01-18T08:51:25.000Z</time>
      </trkpt>
      <trkpt lat="46.19862" lon="-0.90149">
        <ele>12.60000038147</ele>
        <time>2016-01-18T08:51:37.000Z</time>
      </trkpt>
      <trkpt lat="46.19847" lon="-0.90166">
        <ele>12.199999809265</ele>
        <time>2016-01-18T08:51:49.000Z</time>
      </trkpt>
      <trkpt lat="46.19832" lon="-0.90182">
        <ele>11.800000190735</ele>
        <time>2016-01-18T08:52:01.000Z</time>
      </trkpt>
      <trkpt lat="46.19819" lon="-0.902">
        <ele>11.39999961853</ele>
        <time>2016-01-18T08:52:13.000Z</time>
      </trkpt>
      <trkpt lat="46.19804" lon="-0.90217">
        <ele>10.800000190735</ele>
        <time>2016-01-18T08:52:25.000Z</time>
      </trkpt>
      <trkpt lat="46.19789" lon="-0.90234">
        <ele>10.39999961853</ele>
        <time>2016-01-18T08:52:37.000Z</time>
      </trkpt>
      <trkpt lat="46.19774" lon="-0.90251">
        <ele>10</ele>
        <time>2016-01-18T08:52:49.000Z</time>
      </trkpt>
      <trkpt lat="46.19758" lon="-0.90267">
        <ele>9.8000001907349</ele>
        <time>2016-01-18T08:53:01.000Z</time>
      </trkpt>
      <trkpt lat="46.19743" lon="-0.90282">
        <ele>9.3999996185303</ele>
        <time>2016-01-18T08:53:14.000Z</time>
      </trkpt>
      <trkpt lat="46.19728" lon="-0.903">
        <ele>9</ele>
        <time>2016-01-18T08:53:26.000Z</time>
      </trkpt>
      <trkpt lat="46.19714" lon="-0.90317">
        <ele>8.8000001907349</ele>
        <time>2016-01-18T08:53:38.000Z</time>
      </trkpt>
      <trkpt lat="46.19699" lon="-0.90335">
        <ele>8.6000003814697</ele>
        <time>2016-01-18T08:53:50.000Z</time>
      </trkpt>
      <trkpt lat="46.19685" lon="-0.90351">
        <ele>8.3999996185303</ele>
        <time>2016-01-18T08:54:01.000Z</time>
      </trkpt>
      <trkpt lat="46.19669" lon="-0.90367">
        <ele>8.1999998092651</ele>
        <time>2016-01-18T08:54:13.000Z</time>
      </trkpt>
      <trkpt lat="46.19654" lon="-0.90384">
        <ele>8</ele>
        <time>2016-01-18T08:54:25.000Z</time>
      </trkpt>
      <trkpt lat="46.1964" lon="-0.90402">
        <ele>7.8000001907349</ele>
        <time>2016-01-18T08:54:37.000Z</time>
      </trkpt>
      <trkpt lat="46.19625" lon="-0.90418">
        <ele>7.8000001907349</ele>
        <time>2016-01-18T08:54:49.000Z</time>
      </trkpt>
      <trkpt lat="46.19611" lon="-0.90434">
        <ele>7.8000001907349</ele>
        <time>2016-01-18T08:55:01.000Z</time>
      </trkpt>
      <trkpt lat="46.19595" lon="-0.90454">
        <ele>7.5999999046326</ele>
        <time>2016-01-18T08:55:14.000Z</time>
      </trkpt>
      <trkpt lat="46.19581" lon="-0.90471">
        <ele>7.5999999046326</ele>
        <time>2016-01-18T08:55:26.000Z</time>
      </trkpt>
      <trkpt lat="46.19567" lon="-0.90488">
        <ele>7.5999999046326</ele>
        <time>2016-01-18T08:55:38.000Z</time>
      </trkpt>
      <trkpt lat="46.19553" lon="-0.90506">
        <ele>7.5999999046326</ele>
        <time>2016-01-18T08:55:50.000Z</time>
      </trkpt>
      <trkpt lat="46.19538" lon="-0.90523">
        <ele>7.1999998092651</ele>
        <time>2016-01-18T08:56:02.000Z</time>
      </trkpt>
      <trkpt lat="46.19523" lon="-0.90539">
        <ele>6.8000001907349</ele>
        <time>2016-01-18T08:56:14.000Z</time>
      </trkpt>
      <trkpt lat="46.19509" lon="-0.90556">
        <ele>6.4000000953674</ele>
        <time>2016-01-18T08:56:26.000Z</time>
      </trkpt>
      <trkpt lat="46.19494" lon="-0.90573">
        <ele>6</ele>
        <time>2016-01-18T08:56:38.000Z</time>
      </trkpt>
      <trkpt lat="46.19479" lon="-0.9059">
        <ele>5.5999999046326</ele>
        <time>2016-01-18T08:56:50.000Z</time>
      </trkpt>
      <trkpt lat="46.19466" lon="-0.90611">
        <ele>5.4000000953674</ele>
        <time>2016-01-18T08:57:02.000Z</time>
      </trkpt>
      <trkpt lat="46.19464" lon="-0.90618">
        <ele>5.1999998092651</ele>
        <time>2016-01-18T08:57:06.000Z</time>
      </trkpt>
      <trkpt lat="46.19468" lon="-0.90644">
        <ele>5</ele>
        <time>2016-01-18T08:57:23.000Z</time>
      </trkpt>
      <trkpt lat="46.19477" lon="-0.90668">
        <ele>4.4000000953674</ele>
        <time>2016-01-18T08:57:37.000Z</time>
      </trkpt>
      <trkpt lat="46.1948" lon="-0.90678">
        <ele>4</ele>
        <time>2016-01-18T08:57:42.000Z</time>
      </trkpt>
      <trkpt lat="46.19482" lon="-0.90694">
        <ele>3.7999999523163</ele>
        <time>2016-01-18T08:57:51.000Z</time>
      </trkpt>
      <trkpt lat="46.19485" lon="-0.90712">
        <ele>3.2000000476837</ele>
        <time>2016-01-18T08:58:09.000Z</time>
      </trkpt>
      <trkpt lat="46.19486" lon="-0.90733">
        <ele>2.7999999523163</ele>
        <time>2016-01-18T08:58:29.000Z</time>
      </trkpt>
      <trkpt lat="46.19491" lon="-0.90759">
        <ele>2.5999999046326</ele>
        <time>2016-01-18T08:58:49.000Z</time>
      </trkpt>
      <trkpt lat="46.19499" lon="-0.90783">
        <ele>2.2000000476837</ele>
        <time>2016-01-18T08:59:07.000Z</time>
      </trkpt>
      <trkpt lat="46.19508" lon="-0.90806">
        <ele>2.4000000953674</ele>
        <time>2016-01-18T08:59:23.000Z</time>
      </trkpt>
      <trkpt lat="46.19512" lon="-0.90815">
        <ele>2.5999999046326</ele>
        <time>2016-01-18T08:59:31.000Z</time>
      </trkpt>
      <trkpt lat="46.1952" lon="-0.90839">
        <ele>2.7999999523163</ele>
        <time>2016-01-18T08:59:55.000Z</time>
      </trkpt>
      <trkpt lat="46.19529" lon="-0.90863">
        <ele>3.2000000476837</ele>
        <time>2016-01-18T09:00:09.000Z</time>
      </trkpt>
      <trkpt lat="46.19535" lon="-0.90888">
        <ele>3.5999999046326</ele>
        <time>2016-01-18T09:00:22.000Z</time>
      </trkpt>
      <trkpt lat="46.19534" lon="-0.9089">
        <ele>3.5999999046326</ele>
        <time>2016-01-18T09:00:23.000Z</time>
      </trkpt>
      <trkpt lat="46.19528" lon="-0.90901">
        <ele>3.7999999523163</ele>
        <time>2016-01-18T09:00:31.000Z</time>
      </trkpt>
      <trkpt lat="46.19526" lon="-0.90904">
        <ele>3.7999999523163</ele>
        <time>2016-01-18T09:00:34.000Z</time>
      </trkpt>
      <trkpt lat="46.19525" lon="-0.90901">
        <ele>3.5999999046326</ele>
        <time>2016-01-18T09:01:34.000Z</time>
      </trkpt>
      <trkpt lat="46.19537" lon="-0.90888">
        <ele>3.5999999046326</ele>
        <time>2016-01-18T09:01:49.000Z</time>
      </trkpt>
      <trkpt lat="46.19543" lon="-0.90894">
        <ele>3.7999999523163</ele>
        <time>2016-01-18T09:01:54.000Z</time>
      </trkpt>
      <trkpt lat="46.19552" lon="-0.90917">
        <ele>4.1999998092651</ele>
        <time>2016-01-18T09:02:08.000Z</time>
      </trkpt>
      <trkpt lat="46.19563" lon="-0.90939">
        <ele>4.5999999046326</ele>
        <time>2016-01-18T09:02:21.000Z</time>
      </trkpt>
      <trkpt lat="46.19575" lon="-0.90958">
        <ele>5.1999998092651</ele>
        <time>2016-01-18T09:02:33.000Z</time>
      </trkpt>
      <trkpt lat="46.19586" lon="-0.9098">
        <ele>5</ele>
        <time>2016-01-18T09:02:46.000Z</time>
      </trkpt>
      <trkpt lat="46.19601" lon="-0.90992">
        <ele>4.8000001907349</ele>
        <time>2016-01-18T09:02:59.000Z</time>
      </trkpt>
      <trkpt lat="46.19618" lon="-0.90999">
        <ele>4.5999999046326</ele>
        <time>2016-01-18T09:03:11.000Z</time>
      </trkpt>
      <trkpt lat="46.19631" lon="-0.91018">
        <ele>4.8000001907349</ele>
        <time>2016-01-18T09:03:24.000Z</time>
      </trkpt>
      <trkpt lat="46.19633" lon="-0.91022">
        <ele>4.8000001907349</ele>
        <time>2016-01-18T09:03:26.000Z</time>
      </trkpt>
      <trkpt lat="46.19644" lon="-0.91044">
        <ele>5</ele>
        <time>2016-01-18T09:03:39.000Z</time>
      </trkpt>
      <trkpt lat="46.19654" lon="-0.91063">
        <ele>5.1999998092651</ele>
        <time>2016-01-18T09:03:50.000Z</time>
      </trkpt>
      <trkpt lat="46.19665" lon="-0.91086">
        <ele>5.5999999046326</ele>
        <time>2016-01-18T09:04:04.000Z</time>
      </trkpt>
      <trkpt lat="46.19676" lon="-0.91107">
        <ele>6</ele>
        <time>2016-01-18T09:04:16.000Z</time>
      </trkpt>
      <trkpt lat="46.19687" lon="-0.91128">
        <ele>5.5999999046326</ele>
        <time>2016-01-18T09:04:29.000Z</time>
      </trkpt>
      <trkpt lat="46.19696" lon="-0.91151">
        <ele>5.1999998092651</ele>
        <time>2016-01-18T09:04:42.000Z</time>
      </trkpt>
      <trkpt lat="46.19707" lon="-0.91173">
        <ele>5</ele>
        <time>2016-01-18T09:04:55.000Z</time>
      </trkpt>
      <trkpt lat="46.19718" lon="-0.91196">
        <ele>5</ele>
        <time>2016-01-18T09:05:09.000Z</time>
      </trkpt>
      <trkpt lat="46.19729" lon="-0.91217">
        <ele>5</ele>
        <time>2016-01-18T09:05:22.000Z</time>
      </trkpt>
      <trkpt lat="46.19741" lon="-0.91239">
        <ele>4.8000001907349</ele>
        <time>2016-01-18T09:05:35.000Z</time>
      </trkpt>
      <trkpt lat="46.19752" lon="-0.91261">
        <ele>4.4000000953674</ele>
        <time>2016-01-18T09:05:47.000Z</time>
      </trkpt>
      <trkpt lat="46.19763" lon="-0.91282">
        <ele>4.1999998092651</ele>
        <time>2016-01-18T09:05:58.000Z</time>
      </trkpt>
      <trkpt lat="46.19773" lon="-0.91304">
        <ele>4</ele>
        <time>2016-01-18T09:06:10.000Z</time>
      </trkpt>
      <trkpt lat="46.19784" lon="-0.91325">
        <ele>4.4000000953674</ele>
        <time>2016-01-18T09:06:23.000Z</time>
      </trkpt>
      <trkpt lat="46.19795" lon="-0.91347">
        <ele>4.4000000953674</ele>
        <time>2016-01-18T09:06:37.000Z</time>
      </trkpt>
      <trkpt lat="46.19805" lon="-0.91369">
        <ele>4.1999998092651</ele>
        <time>2016-01-18T09:06:50.000Z</time>
      </trkpt>
      <trkpt lat="46.19816" lon="-0.9139">
        <ele>4.1999998092651</ele>
        <time>2016-01-18T09:07:02.000Z</time>
      </trkpt>
      <trkpt lat="46.19826" lon="-0.91412">
        <ele>4.8000001907349</ele>
        <time>2016-01-18T09:07:15.000Z</time>
      </trkpt>
      <trkpt lat="46.19839" lon="-0.91431">
        <ele>5.4000000953674</ele>
        <time>2016-01-18T09:07:28.000Z</time>
      </trkpt>
      <trkpt lat="46.1985" lon="-0.91452">
        <ele>6.1999998092651</ele>
        <time>2016-01-18T09:07:41.000Z</time>
      </trkpt>
      <trkpt lat="46.19862" lon="-0.91474">
        <ele>6.8000001907349</ele>
        <time>2016-01-18T09:07:55.000Z</time>
      </trkpt>
      <trkpt lat="46.19874" lon="-0.91494">
        <ele>7</ele>
        <time>2016-01-18T09:08:08.000Z</time>
      </trkpt>
      <trkpt lat="46.19888" lon="-0.91514">
        <ele>7.5999999046326</ele>
        <time>2016-01-18T09:08:21.000Z</time>
      </trkpt>
      <trkpt lat="46.19904" lon="-0.91524">
        <ele>8.1999998092651</ele>
        <time>2016-01-18T09:08:34.000Z</time>
      </trkpt>
      <trkpt lat="46.19922" lon="-0.91514">
        <ele>8.3999996185303</ele>
        <time>2016-01-18T09:08:46.000Z</time>
      </trkpt>
      <trkpt lat="46.1994" lon="-0.91504">
        <ele>8.6000003814697</ele>
        <time>2016-01-18T09:08:58.000Z</time>
      </trkpt>
      <trkpt lat="46.19956" lon="-0.91494">
        <ele>8.8000001907349</ele>
        <time>2016-01-18T09:09:11.000Z</time>
      </trkpt>
      <trkpt lat="46.19973" lon="-0.91483">
        <ele>8.8000001907349</ele>
        <time>2016-01-18T09:09:23.000Z</time>
      </trkpt>
      <trkpt lat="46.1999" lon="-0.91473">
        <ele>8.8000001907349</ele>
        <time>2016-01-18T09:09:36.000Z</time>
      </trkpt>
      <trkpt lat="46.20008" lon="-0.91462">
        <ele>8.1999998092651</ele>
        <time>2016-01-18T09:09:48.000Z</time>
      </trkpt>
      <trkpt lat="46.20026" lon="-0.91451">
        <ele>7.8000001907349</ele>
        <time>2016-01-18T09:10:01.000Z</time>
      </trkpt>
      <trkpt lat="46.20043" lon="-0.91439">
        <ele>7.4000000953674</ele>
        <time>2016-01-18T09:10:14.000Z</time>
      </trkpt>
      <trkpt lat="46.20059" lon="-0.91428">
        <ele>7</ele>
        <time>2016-01-18T09:10:27.000Z</time>
      </trkpt>
      <trkpt lat="46.20077" lon="-0.91418">
        <ele>7.1999998092651</ele>
        <time>2016-01-18T09:10:39.000Z</time>
      </trkpt>
      <trkpt lat="46.20082" lon="-0.91415">
        <ele>7.1999998092651</ele>
        <time>2016-01-18T09:10:43.000Z</time>
      </trkpt>
      <trkpt lat="46.201" lon="-0.91406">
        <ele>7.4000000953674</ele>
        <time>2016-01-18T09:10:56.000Z</time>
      </trkpt>
      <trkpt lat="46.20117" lon="-0.91395">
        <ele>7.5999999046326</ele>
        <time>2016-01-18T09:11:09.000Z</time>
      </trkpt>
      <trkpt lat="46.20135" lon="-0.91384">
        <ele>8</ele>
        <time>2016-01-18T09:11:22.000Z</time>
      </trkpt>
      <trkpt lat="46.20151" lon="-0.91373">
        <ele>8.1999998092651</ele>
        <time>2016-01-18T09:11:34.000Z</time>
      </trkpt>
      <trkpt lat="46.20169" lon="-0.91361">
        <ele>8.3999996185303</ele>
        <time>2016-01-18T09:11:47.000Z</time>
      </trkpt>
      <trkpt lat="46.20186" lon="-0.91351">
        <ele>8.3999996185303</ele>
        <time>2016-01-18T09:12:00.000Z</time>
      </trkpt>
      <trkpt lat="46.20203" lon="-0.9134">
        <ele>8.6000003814697</ele>
        <time>2016-01-18T09:12:12.000Z</time>
      </trkpt>
      <trkpt lat="46.2022" lon="-0.91329">
        <ele>8.6000003814697</ele>
        <time>2016-01-18T09:12:25.000Z</time>
      </trkpt>
      <trkpt lat="46.20237" lon="-0.91317">
        <ele>9</ele>
        <time>2016-01-18T09:12:38.000Z</time>
      </trkpt>
      <trkpt lat="46.20255" lon="-0.91306">
        <ele>9.6000003814697</ele>
        <time>2016-01-18T09:12:51.000Z</time>
      </trkpt>
      <trkpt lat="46.20271" lon="-0.91295">
        <ele>10.199999809265</ele>
        <time>2016-01-18T09:13:03.000Z</time>
      </trkpt>
      <trkpt lat="46.20289" lon="-0.91285">
        <ele>10.60000038147</ele>
        <time>2016-01-18T09:13:15.000Z</time>
      </trkpt>
      <trkpt lat="46.20305" lon="-0.91274">
        <ele>11.199999809265</ele>
        <time>2016-01-18T09:13:27.000Z</time>
      </trkpt>
      <trkpt lat="46.20323" lon="-0.91265">
        <ele>11.39999961853</ele>
        <time>2016-01-18T09:13:40.000Z</time>
      </trkpt>
      <trkpt lat="46.20341" lon="-0.91255">
        <ele>11.60000038147</ele>
        <time>2016-01-18T09:13:53.000Z</time>
      </trkpt>
      <trkpt lat="46.20359" lon="-0.91246">
        <ele>11.800000190735</ele>
        <time>2016-01-18T09:14:07.000Z</time>
      </trkpt>
      <trkpt lat="46.20375" lon="-0.91235">
        <ele>11.800000190735</ele>
        <time>2016-01-18T09:14:20.000Z</time>
      </trkpt>
      <trkpt lat="46.20393" lon="-0.91226">
        <ele>12</ele>
        <time>2016-01-18T09:14:33.000Z</time>
      </trkpt>
      <trkpt lat="46.20406" lon="-0.91221">
        <ele>12</ele>
        <time>2016-01-18T09:14:43.000Z</time>
      </trkpt>
      <trkpt lat="46.20424" lon="-0.9121">
        <ele>12</ele>
        <time>2016-01-18T09:14:56.000Z</time>
      </trkpt>
      <trkpt lat="46.20442" lon="-0.91202">
        <ele>12</ele>
        <time>2016-01-18T09:15:09.000Z</time>
      </trkpt>
      <trkpt lat="46.2046" lon="-0.91193">
        <ele>12</ele>
        <time>2016-01-18T09:15:22.000Z</time>
      </trkpt>
      <trkpt lat="46.20478" lon="-0.91186">
        <ele>12</ele>
        <time>2016-01-18T09:15:35.000Z</time>
      </trkpt>
      <trkpt lat="46.20496" lon="-0.91177">
        <ele>12</ele>
        <time>2016-01-18T09:15:47.000Z</time>
      </trkpt>
      <trkpt lat="46.20514" lon="-0.91169">
        <ele>12</ele>
        <time>2016-01-18T09:16:00.000Z</time>
      </trkpt>
      <trkpt lat="46.20532" lon="-0.91162">
        <ele>12</ele>
        <time>2016-01-18T09:16:13.000Z</time>
      </trkpt>
      <trkpt lat="46.20541" lon="-0.91152">
        <ele>12</ele>
        <time>2016-01-18T09:16:21.000Z</time>
      </trkpt>
      <trkpt lat="46.20533" lon="-0.9114">
        <ele>12</ele>
        <time>2016-01-18T09:16:29.000Z</time>
      </trkpt>
      <trkpt lat="46.20526" lon="-0.91132">
        <ele>12.199999809265</ele>
        <time>2016-01-18T09:16:38.000Z</time>
      </trkpt>
      <trkpt lat="46.20521" lon="-0.91126">
        <ele>12.39999961853</ele>
        <time>2016-01-18T09:16:53.000Z</time>
      </trkpt>
      <trkpt lat="46.20508" lon="-0.91116">
        <ele>12.60000038147</ele>
        <time>2016-01-18T09:17:06.000Z</time>
      </trkpt>
      <trkpt lat="46.20493" lon="-0.91099">
        <ele>13</ele>
        <time>2016-01-18T09:17:19.000Z</time>
      </trkpt>
      <trkpt lat="46.20478" lon="-0.91083">
        <ele>13.39999961853</ele>
        <time>2016-01-18T09:17:33.000Z</time>
      </trkpt>
      <trkpt lat="46.20462" lon="-0.91068">
        <ele>13.800000190735</ele>
        <time>2016-01-18T09:17:45.000Z</time>
      </trkpt>
      <trkpt lat="46.20446" lon="-0.91054">
        <ele>13.60000038147</ele>
        <time>2016-01-18T09:17:58.000Z</time>
      </trkpt>
      <trkpt lat="46.20429" lon="-0.91041">
        <ele>13.39999961853</ele>
        <time>2016-01-18T09:18:11.000Z</time>
      </trkpt>
      <trkpt lat="46.20412" lon="-0.91028">
        <ele>13.39999961853</ele>
        <time>2016-01-18T09:18:24.000Z</time>
      </trkpt>
      <trkpt lat="46.20397" lon="-0.91012">
        <ele>13.60000038147</ele>
        <time>2016-01-18T09:18:36.000Z</time>
      </trkpt>
      <trkpt lat="46.20381" lon="-0.90996">
        <ele>13.800000190735</ele>
        <time>2016-01-18T09:18:49.000Z</time>
      </trkpt>
      <trkpt lat="46.20365" lon="-0.90983">
        <ele>14.199999809265</ele>
        <time>2016-01-18T09:19:02.000Z</time>
      </trkpt>
      <trkpt lat="46.2035" lon="-0.90968">
        <ele>14.60000038147</ele>
        <time>2016-01-18T09:19:14.000Z</time>
      </trkpt>
      <trkpt lat="46.20335" lon="-0.90953">
        <ele>14.800000190735</ele>
        <time>2016-01-18T09:19:27.000Z</time>
      </trkpt>
      <trkpt lat="46.20321" lon="-0.90935">
        <ele>14.60000038147</ele>
        <time>2016-01-18T09:19:39.000Z</time>
      </trkpt>
      <trkpt lat="46.20307" lon="-0.90916">
        <ele>14.199999809265</ele>
        <time>2016-01-18T09:19:52.000Z</time>
      </trkpt>
      <trkpt lat="46.20294" lon="-0.90897">
        <ele>13.800000190735</ele>
        <time>2016-01-18T09:20:05.000Z</time>
      </trkpt>
      <trkpt lat="46.20281" lon="-0.90877">
        <ele>13.800000190735</ele>
        <time>2016-01-18T09:20:19.000Z</time>
      </trkpt>
      <trkpt lat="46.20269" lon="-0.90857">
        <ele>13.800000190735</ele>
        <time>2016-01-18T09:20:31.000Z</time>
      </trkpt>
      <trkpt lat="46.20257" lon="-0.90837">
        <ele>13.60000038147</ele>
        <time>2016-01-18T09:20:44.000Z</time>
      </trkpt>
      <trkpt lat="46.20246" lon="-0.90815">
        <ele>13.39999961853</ele>
        <time>2016-01-18T09:20:57.000Z</time>
      </trkpt>
      <trkpt lat="46.20235" lon="-0.90794">
        <ele>13.39999961853</ele>
        <time>2016-01-18T09:21:11.000Z</time>
      </trkpt>
      <trkpt lat="46.20223" lon="-0.90772">
        <ele>13.39999961853</ele>
        <time>2016-01-18T09:21:25.000Z</time>
      </trkpt>
      <trkpt lat="46.20212" lon="-0.90751">
        <ele>13.39999961853</ele>
        <time>2016-01-18T09:21:39.000Z</time>
      </trkpt>
      <trkpt lat="46.20201" lon="-0.90729">
        <ele>13.60000038147</ele>
        <time>2016-01-18T09:21:53.000Z</time>
      </trkpt>
      <trkpt lat="46.2019" lon="-0.90707">
        <ele>13.60000038147</ele>
        <time>2016-01-18T09:22:06.000Z</time>
      </trkpt>
      <trkpt lat="46.20178" lon="-0.90686">
        <ele>13.39999961853</ele>
        <time>2016-01-18T09:22:20.000Z</time>
      </trkpt>
      <trkpt lat="46.20168" lon="-0.90663">
        <ele>13.199999809265</ele>
        <time>2016-01-18T09:22:34.000Z</time>
      </trkpt>
      <trkpt lat="46.20158" lon="-0.90641">
        <ele>13.199999809265</ele>
        <time>2016-01-18T09:22:46.000Z</time>
      </trkpt>
      <trkpt lat="46.20146" lon="-0.90618">
        <ele>13</ele>
        <time>2016-01-18T09:23:00.000Z</time>
      </trkpt>
      <trkpt lat="46.20135" lon="-0.90597">
        <ele>12.800000190735</ele>
        <time>2016-01-18T09:23:13.000Z</time>
      </trkpt>
      <trkpt lat="46.20124" lon="-0.90574">
        <ele>12.800000190735</ele>
        <time>2016-01-18T09:23:25.000Z</time>
      </trkpt>
      <trkpt lat="46.20112" lon="-0.90553">
        <ele>13</ele>
        <time>2016-01-18T09:23:38.000Z</time>
      </trkpt>
      <trkpt lat="46.201" lon="-0.90532">
        <ele>13</ele>
        <time>2016-01-18T09:23:51.000Z</time>
      </trkpt>
      <trkpt lat="46.20086" lon="-0.90513">
        <ele>12.60000038147</ele>
        <time>2016-01-18T09:24:03.000Z</time>
      </trkpt>
      <trkpt lat="46.20074" lon="-0.90494">
        <ele>11.800000190735</ele>
        <time>2016-01-18T09:24:15.000Z</time>
      </trkpt>
      <trkpt lat="46.2006" lon="-0.90475">
        <ele>11</ele>
        <time>2016-01-18T09:24:29.000Z</time>
      </trkpt>
      <trkpt lat="46.20048" lon="-0.90456">
        <ele>11</ele>
        <time>2016-01-18T09:24:42.000Z</time>
      </trkpt>
      <trkpt lat="46.20034" lon="-0.90439">
        <ele>11</ele>
        <time>2016-01-18T09:24:55.000Z</time>
      </trkpt>
      <trkpt lat="46.20021" lon="-0.90421">
        <ele>11.199999809265</ele>
        <time>2016-01-18T09:25:08.000Z</time>
      </trkpt>
      <trkpt lat="46.20009" lon="-0.90402">
        <ele>11.199999809265</ele>
        <time>2016-01-18T09:25:21.000Z</time>
      </trkpt>
      <trkpt lat="46.19995" lon="-0.90382">
        <ele>11.199999809265</ele>
        <time>2016-01-18T09:25:34.000Z</time>
      </trkpt>
      <trkpt lat="46.19981" lon="-0.90364">
        <ele>11</ele>
        <time>2016-01-18T09:25:46.000Z</time>
      </trkpt>
      <trkpt lat="46.19968" lon="-0.90346">
        <ele>10.800000190735</ele>
        <time>2016-01-18T09:25:58.000Z</time>
      </trkpt>
      <trkpt lat="46.19955" lon="-0.90328">
        <ele>10.800000190735</ele>
        <time>2016-01-18T09:26:10.000Z</time>
      </trkpt>
      <trkpt lat="46.19942" lon="-0.90309">
        <ele>10.60000038147</ele>
        <time>2016-01-18T09:26:23.000Z</time>
      </trkpt>
      <trkpt lat="46.19928" lon="-0.90291">
        <ele>10.800000190735</ele>
        <time>2016-01-18T09:26:36.000Z</time>
      </trkpt>
      <trkpt lat="46.19915" lon="-0.90272">
        <ele>11</ele>
        <time>2016-01-18T09:26:50.000Z</time>
      </trkpt>
      <trkpt lat="46.19903" lon="-0.90252">
        <ele>11.39999961853</ele>
        <time>2016-01-18T09:27:04.000Z</time>
      </trkpt>
      <trkpt lat="46.19888" lon="-0.90234">
        <ele>11.800000190735</ele>
        <time>2016-01-18T09:27:17.000Z</time>
      </trkpt>
      <trkpt lat="46.19874" lon="-0.90215">
        <ele>11.800000190735</ele>
        <time>2016-01-18T09:27:30.000Z</time>
      </trkpt>
      <trkpt lat="46.19859" lon="-0.90198">
        <ele>11.800000190735</ele>
        <time>2016-01-18T09:27:43.000Z</time>
      </trkpt>
      <trkpt lat="46.19845" lon="-0.90182">
        <ele>12</ele>
        <time>2016-01-18T09:27:56.000Z</time>
      </trkpt>
      <trkpt lat="46.19833" lon="-0.90161">
        <ele>12</ele>
        <time>2016-01-18T09:28:09.000Z</time>
      </trkpt>
      <trkpt lat="46.19819" lon="-0.90141">
        <ele>12</ele>
        <time>2016-01-18T09:28:22.000Z</time>
      </trkpt>
      <trkpt lat="46.19806" lon="-0.90122">
        <ele>11.800000190735</ele>
        <time>2016-01-18T09:28:35.000Z</time>
      </trkpt>
      <trkpt lat="46.19794" lon="-0.90103">
        <ele>11.60000038147</ele>
        <time>2016-01-18T09:28:48.000Z</time>
      </trkpt>
      <trkpt lat="46.19781" lon="-0.90084">
        <ele>11.199999809265</ele>
        <time>2016-01-18T09:29:02.000Z</time>
      </trkpt>
      <trkpt lat="46.19768" lon="-0.90064">
        <ele>11</ele>
        <time>2016-01-18T09:29:16.000Z</time>
      </trkpt>
      <trkpt lat="46.19754" lon="-0.90044">
        <ele>10.60000038147</ele>
        <time>2016-01-18T09:29:30.000Z</time>
      </trkpt>
      <trkpt lat="46.19742" lon="-0.90024">
        <ele>10.60000038147</ele>
        <time>2016-01-18T09:29:44.000Z</time>
      </trkpt>
      <trkpt lat="46.19728" lon="-0.90005">
        <ele>10.60000038147</ele>
        <time>2016-01-18T09:29:58.000Z</time>
      </trkpt>
      <trkpt lat="46.19714" lon="-0.89987">
        <ele>10.800000190735</ele>
        <time>2016-01-18T09:30:12.000Z</time>
      </trkpt>
      <trkpt lat="46.197" lon="-0.8997">
        <ele>10.39999961853</ele>
        <time>2016-01-18T09:30:25.000Z</time>
      </trkpt>
      <trkpt lat="46.19687" lon="-0.89951">
        <ele>10</ele>
        <time>2016-01-18T09:30:38.000Z</time>
      </trkpt>
      <trkpt lat="46.19674" lon="-0.89933">
        <ele>9.6000003814697</ele>
        <time>2016-01-18T09:30:51.000Z</time>
      </trkpt>
      <trkpt lat="46.19661" lon="-0.89915">
        <ele>9.3999996185303</ele>
        <time>2016-01-18T09:31:04.000Z</time>
      </trkpt>
      <trkpt lat="46.19647" lon="-0.89895">
        <ele>9</ele>
        <time>2016-01-18T09:31:17.000Z</time>
      </trkpt>
      <trkpt lat="46.19634" lon="-0.89876">
        <ele>8.8000001907349</ele>
        <time>2016-01-18T09:31:30.000Z</time>
      </trkpt>
      <trkpt lat="46.19622" lon="-0.89857">
        <ele>8.8000001907349</ele>
        <time>2016-01-18T09:31:43.000Z</time>
      </trkpt>
      <trkpt lat="46.19611" lon="-0.89836">
        <ele>8.6000003814697</ele>
        <time>2016-01-18T09:31:56.000Z</time>
      </trkpt>
      <trkpt lat="46.19599" lon="-0.89815">
        <ele>9</ele>
        <time>2016-01-18T09:32:09.000Z</time>
      </trkpt>
      <trkpt lat="46.19587" lon="-0.89794">
        <ele>9.1999998092651</ele>
        <time>2016-01-18T09:32:22.000Z</time>
      </trkpt>
      <trkpt lat="46.19575" lon="-0.89772">
        <ele>9.1999998092651</ele>
        <time>2016-01-18T09:32:36.000Z</time>
      </trkpt>
      <trkpt lat="46.19563" lon="-0.89751">
        <ele>9</ele>
        <time>2016-01-18T09:32:49.000Z</time>
      </trkpt>
      <trkpt lat="46.19551" lon="-0.8973">
        <ele>8.8000001907349</ele>
        <time>2016-01-18T09:33:02.000Z</time>
      </trkpt>
      <trkpt lat="46.19549" lon="-0.89727">
        <ele>8.8000001907349</ele>
        <time>2016-01-18T09:33:04.000Z</time>
      </trkpt>
      <trkpt lat="46.19545" lon="-0.89721">
        <ele>8.8000001907349</ele>
        <time>2016-01-18T09:33:08.000Z</time>
      </trkpt>
      <trkpt lat="46.19534" lon="-0.89702">
        <ele>8.6000003814697</ele>
        <time>2016-01-18T09:33:28.000Z</time>
      </trkpt>
      <trkpt lat="46.19521" lon="-0.89682">
        <ele>8.6000003814697</ele>
        <time>2016-01-18T09:33:41.000Z</time>
      </trkpt>
      <trkpt lat="46.19507" lon="-0.89661">
        <ele>8.3999996185303</ele>
        <time>2016-01-18T09:33:55.000Z</time>
      </trkpt>
      <trkpt lat="46.19494" lon="-0.8964">
        <ele>8.1999998092651</ele>
        <time>2016-01-18T09:34:09.000Z</time>
      </trkpt>
      <trkpt lat="46.19482" lon="-0.89621">
        <ele>8.3999996185303</ele>
        <time>2016-01-18T09:34:22.000Z</time>
      </trkpt>
      <trkpt lat="46.19468" lon="-0.896">
        <ele>8.3999996185303</ele>
        <time>2016-01-18T09:34:35.000Z</time>
      </trkpt>
      <trkpt lat="46.19456" lon="-0.8958">
        <ele>8.8000001907349</ele>
        <time>2016-01-18T09:34:48.000Z</time>
      </trkpt>
      <trkpt lat="46.19443" lon="-0.8956">
        <ele>9</ele>
        <time>2016-01-18T09:35:01.000Z</time>
      </trkpt>
      <trkpt lat="46.19431" lon="-0.8954">
        <ele>9.1999998092651</ele>
        <time>2016-01-18T09:35:14.000Z</time>
      </trkpt>
      <trkpt lat="46.19418" lon="-0.89521">
        <ele>9.3999996185303</ele>
        <time>2016-01-18T09:35:26.000Z</time>
      </trkpt>
      <trkpt lat="46.19404" lon="-0.89503">
        <ele>9.6000003814697</ele>
        <time>2016-01-18T09:35:38.000Z</time>
      </trkpt>
      <trkpt lat="46.1939" lon="-0.89487">
        <ele>9.8000001907349</ele>
        <time>2016-01-18T09:35:50.000Z</time>
      </trkpt>
      <trkpt lat="46.19375" lon="-0.89471">
        <ele>9.6000003814697</ele>
        <time>2016-01-18T09:36:03.000Z</time>
      </trkpt>
      <trkpt lat="46.19359" lon="-0.89456">
        <ele>9.1999998092651</ele>
        <time>2016-01-18T09:36:16.000Z</time>
      </trkpt>
      <trkpt lat="46.19344" lon="-0.89438">
        <ele>8.8000001907349</ele>
        <time>2016-01-18T09:36:29.000Z</time>
      </trkpt>
      <trkpt lat="46.19329" lon="-0.89422">
        <ele>8.8000001907349</ele>
        <time>2016-01-18T09:36:42.000Z</time>
      </trkpt>
      <trkpt lat="46.19314" lon="-0.89405">
        <ele>8.8000001907349</ele>
        <time>2016-01-18T09:36:54.000Z</time>
      </trkpt>
      <trkpt lat="46.193" lon="-0.89391">
        <ele>9.1999998092651</ele>
        <time>2016-01-18T09:37:15.000Z</time>
      </trkpt>
      <trkpt lat="46.19301" lon="-0.89386">
        <ele>9.1999998092651</ele>
        <time>2016-01-18T09:39:02.000Z</time>
      </trkpt>
      <trkpt lat="46.193" lon="-0.89386">
        <ele>9.1999998092651</ele>
        <time>2016-01-18T09:41:15.000Z</time>
      </trkpt>
      <trkpt lat="46.19287" lon="-0.89375">
        <ele>9.6000003814697</ele>
        <time>2016-01-18T09:41:35.000Z</time>
      </trkpt>
      <trkpt lat="46.19286" lon="-0.89374">
        <ele>9.6000003814697</ele>
        <time>2016-01-18T09:41:37.000Z</time>
      </trkpt>
      <trkpt lat="46.19268" lon="-0.89368">
        <ele>10</ele>
        <time>2016-01-18T09:41:57.000Z</time>
      </trkpt>
      <trkpt lat="46.19249" lon="-0.89366">
        <ele>10.199999809265</ele>
        <time>2016-01-18T09:42:13.000Z</time>
      </trkpt>
      <trkpt lat="46.19231" lon="-0.89364">
        <ele>10</ele>
        <time>2016-01-18T09:42:29.000Z</time>
      </trkpt>
      <trkpt lat="46.19213" lon="-0.8936">
        <ele>9.8000001907349</ele>
        <time>2016-01-18T09:42:42.000Z</time>
      </trkpt>
      <trkpt lat="46.19194" lon="-0.89354">
        <ele>9.6000003814697</ele>
        <time>2016-01-18T09:42:55.000Z</time>
      </trkpt>
      <trkpt lat="46.19176" lon="-0.8935">
        <ele>9.3999996185303</ele>
        <time>2016-01-18T09:43:07.000Z</time>
      </trkpt>
      <trkpt lat="46.19157" lon="-0.89348">
        <ele>9.1999998092651</ele>
        <time>2016-01-18T09:43:20.000Z</time>
      </trkpt>
      <trkpt lat="46.19138" lon="-0.89345">
        <ele>9</ele>
        <time>2016-01-18T09:43:33.000Z</time>
      </trkpt>
      <trkpt lat="46.19119" lon="-0.89343">
        <ele>9</ele>
        <time>2016-01-18T09:43:46.000Z</time>
      </trkpt>
      <trkpt lat="46.191" lon="-0.89342">
        <ele>8.8000001907349</ele>
        <time>2016-01-18T09:43:59.000Z</time>
      </trkpt>
      <trkpt lat="46.19081" lon="-0.8934">
        <ele>8.6000003814697</ele>
        <time>2016-01-18T09:44:12.000Z</time>
      </trkpt>
      <trkpt lat="46.19063" lon="-0.89338">
        <ele>8.3999996185303</ele>
        <time>2016-01-18T09:44:25.000Z</time>
      </trkpt>
      <trkpt lat="46.19044" lon="-0.89336">
        <ele>7.8000001907349</ele>
        <time>2016-01-18T09:44:38.000Z</time>
      </trkpt>
      <trkpt lat="46.19025" lon="-0.89336">
        <ele>7.1999998092651</ele>
        <time>2016-01-18T09:44:51.000Z</time>
      </trkpt>
      <trkpt lat="46.19007" lon="-0.89336">
        <ele>6.5999999046326</ele>
        <time>2016-01-18T09:45:03.000Z</time>
      </trkpt>
      <trkpt lat="46.18995" lon="-0.89339">
        <ele>6.4000000953674</ele>
        <time>2016-01-18T09:45:12.000Z</time>
      </trkpt>
      <trkpt lat="46.18976" lon="-0.89344">
        <ele>6</ele>
        <time>2016-01-18T09:45:26.000Z</time>
      </trkpt>
      <trkpt lat="46.18975" lon="-0.89344">
        <ele>6</ele>
        <time>2016-01-18T09:45:27.000Z</time>
      </trkpt>
      <trkpt lat="46.18964" lon="-0.89332">
        <ele>6</ele>
        <time>2016-01-18T09:45:47.000Z</time>
      </trkpt>
      <trkpt lat="46.18966" lon="-0.89329">
        <ele>6</ele>
        <time>2016-01-18T09:46:33.000Z</time>
      </trkpt>
      <trkpt lat="46.1897" lon="-0.89328">
        <ele>6</ele>
        <time>2016-01-18T09:46:40.000Z</time>
      </trkpt>
      <trkpt lat="46.18974" lon="-0.89328">
        <ele>6</ele>
        <time>2016-01-18T09:46:51.000Z</time>
      </trkpt>
      <trkpt lat="46.1896" lon="-0.89347">
        <ele>6</ele>
        <time>2016-01-18T09:47:19.000Z</time>
      </trkpt>
      <trkpt lat="46.18959" lon="-0.89347">
        <ele>6</ele>
        <time>2016-01-18T09:47:20.000Z</time>
      </trkpt>
      <trkpt lat="46.1894" lon="-0.89346">
        <ele>6</ele>
        <time>2016-01-18T09:47:33.000Z</time>
      </trkpt>
      <trkpt lat="46.18934" lon="-0.89346">
        <ele>6</ele>
        <time>2016-01-18T09:47:38.000Z</time>
      </trkpt>
      <trkpt lat="46.18929" lon="-0.89348">
        <ele>6.1999998092651</ele>
        <time>2016-01-18T09:47:43.000Z</time>
      </trkpt>
      <trkpt lat="46.1892" lon="-0.89339">
        <ele>6.4000000953674</ele>
        <time>2016-01-18T09:47:53.000Z</time>
      </trkpt>
      <trkpt lat="46.18921" lon="-0.89332">
        <ele>6.4000000953674</ele>
        <time>2016-01-18T09:47:57.000Z</time>
      </trkpt>
      <trkpt lat="46.18922" lon="-0.89305">
        <ele>6.5999999046326</ele>
        <time>2016-01-18T09:48:10.000Z</time>
      </trkpt>
      <trkpt lat="46.18924" lon="-0.89278">
        <ele>6.5999999046326</ele>
        <time>2016-01-18T09:48:25.000Z</time>
      </trkpt>
      <trkpt lat="46.1893" lon="-0.89252">
        <ele>7</ele>
        <time>2016-01-18T09:48:39.000Z</time>
      </trkpt>
      <trkpt lat="46.18933" lon="-0.89226">
        <ele>7.5999999046326</ele>
        <time>2016-01-18T09:48:53.000Z</time>
      </trkpt>
      <trkpt lat="46.18932" lon="-0.89199">
        <ele>8.1999998092651</ele>
        <time>2016-01-18T09:49:07.000Z</time>
      </trkpt>
      <trkpt lat="46.18929" lon="-0.89172">
        <ele>8.6000003814697</ele>
        <time>2016-01-18T09:49:21.000Z</time>
      </trkpt>
      <trkpt lat="46.18925" lon="-0.89145">
        <ele>8.6000003814697</ele>
        <time>2016-01-18T09:49:34.000Z</time>
      </trkpt>
      <trkpt lat="46.18919" lon="-0.89119">
        <ele>8.8000001907349</ele>
        <time>2016-01-18T09:49:47.000Z</time>
      </trkpt>
      <trkpt lat="46.18915" lon="-0.89093">
        <ele>8.3999996185303</ele>
        <time>2016-01-18T09:50:03.000Z</time>
      </trkpt>
      <trkpt lat="46.18907" lon="-0.8907">
        <ele>8.1999998092651</ele>
        <time>2016-01-18T09:50:16.000Z</time>
      </trkpt>
      <trkpt lat="46.18898" lon="-0.89047">
        <ele>7.8000001907349</ele>
        <time>2016-01-18T09:50:29.000Z</time>
      </trkpt>
      <trkpt lat="46.18891" lon="-0.89023">
        <ele>7.5999999046326</ele>
        <time>2016-01-18T09:50:43.000Z</time>
      </trkpt>
      <trkpt lat="46.18885" lon="-0.88998">
        <ele>7.4000000953674</ele>
        <time>2016-01-18T09:50:56.000Z</time>
      </trkpt>
      <trkpt lat="46.18879" lon="-0.88973">
        <ele>7</ele>
        <time>2016-01-18T09:51:09.000Z</time>
      </trkpt>
      <trkpt lat="46.18873" lon="-0.88947">
        <ele>7.4000000953674</ele>
        <time>2016-01-18T09:51:23.000Z</time>
      </trkpt>
      <trkpt lat="46.18867" lon="-0.88921">
        <ele>7.5999999046326</ele>
        <time>2016-01-18T09:51:37.000Z</time>
      </trkpt>
      <trkpt lat="46.1886" lon="-0.88898">
        <ele>7.1999998092651</ele>
        <time>2016-01-18T09:51:51.000Z</time>
      </trkpt>
      <trkpt lat="46.18856" lon="-0.88872">
        <ele>7</ele>
        <time>2016-01-18T09:52:04.000Z</time>
      </trkpt>
      <trkpt lat="46.18851" lon="-0.88846">
        <ele>7</ele>
        <time>2016-01-18T09:52:18.000Z</time>
      </trkpt>
      <trkpt lat="46.18848" lon="-0.8882">
        <ele>6.8000001907349</ele>
        <time>2016-01-18T09:52:32.000Z</time>
      </trkpt>
      <trkpt lat="46.18843" lon="-0.88793">
        <ele>6.8000001907349</ele>
        <time>2016-01-18T09:52:47.000Z</time>
      </trkpt>
      <trkpt lat="46.18843" lon="-0.88789">
        <ele>6.8000001907349</ele>
        <time>2016-01-18T09:52:49.000Z</time>
      </trkpt>
      <trkpt lat="46.18837" lon="-0.88765">
        <ele>6.4000000953674</ele>
        <time>2016-01-18T09:53:02.000Z</time>
      </trkpt>
      <trkpt lat="46.18835" lon="-0.88739">
        <ele>6</ele>
        <time>2016-01-18T09:53:15.000Z</time>
      </trkpt>
      <trkpt lat="46.18835" lon="-0.88712">
        <ele>5.8000001907349</ele>
        <time>2016-01-18T09:53:29.000Z</time>
      </trkpt>
      <trkpt lat="46.18835" lon="-0.88685">
        <ele>5.5999999046326</ele>
        <time>2016-01-18T09:53:44.000Z</time>
      </trkpt>
      <trkpt lat="46.18836" lon="-0.88658">
        <ele>5.5999999046326</ele>
        <time>2016-01-18T09:53:58.000Z</time>
      </trkpt>
      <trkpt lat="46.18839" lon="-0.88632">
        <ele>5.5999999046326</ele>
        <time>2016-01-18T09:54:11.000Z</time>
      </trkpt>
      <trkpt lat="46.18844" lon="-0.88605">
        <ele>5.8000001907349</ele>
        <time>2016-01-18T09:54:25.000Z</time>
      </trkpt>
      <trkpt lat="46.18847" lon="-0.88579">
        <ele>5.8000001907349</ele>
        <time>2016-01-18T09:54:39.000Z</time>
      </trkpt>
      <trkpt lat="46.1885" lon="-0.88552">
        <ele>5.8000001907349</ele>
        <time>2016-01-18T09:54:53.000Z</time>
      </trkpt>
      <trkpt lat="46.18851" lon="-0.88524">
        <ele>5.5999999046326</ele>
        <time>2016-01-18T09:55:07.000Z</time>
      </trkpt>
      <trkpt lat="46.18851" lon="-0.88497">
        <ele>5.4000000953674</ele>
        <time>2016-01-18T09:55:21.000Z</time>
      </trkpt>
      <trkpt lat="46.1885" lon="-0.8847">
        <ele>5.5999999046326</ele>
        <time>2016-01-18T09:55:34.000Z</time>
      </trkpt>
      <trkpt lat="46.18845" lon="-0.88445">
        <ele>6</ele>
        <time>2016-01-18T09:55:48.000Z</time>
      </trkpt>
      <trkpt lat="46.18839" lon="-0.88419">
        <ele>6.4000000953674</ele>
        <time>2016-01-18T09:56:01.000Z</time>
      </trkpt>
      <trkpt lat="46.18832" lon="-0.88395">
        <ele>6.4000000953674</ele>
        <time>2016-01-18T09:56:14.000Z</time>
      </trkpt>
      <trkpt lat="46.18828" lon="-0.88368">
        <ele>6.5999999046326</ele>
        <time>2016-01-18T09:56:28.000Z</time>
      </trkpt>
      <trkpt lat="46.18827" lon="-0.88342">
        <ele>7</ele>
        <time>2016-01-18T09:56:42.000Z</time>
      </trkpt>
      <trkpt lat="46.18826" lon="-0.88314">
        <ele>7.1999998092651</ele>
        <time>2016-01-18T09:56:55.000Z</time>
      </trkpt>
      <trkpt lat="46.18826" lon="-0.88287">
        <ele>7.1999998092651</ele>
        <time>2016-01-18T09:57:08.000Z</time>
      </trkpt>
      <trkpt lat="46.18825" lon="-0.88259">
        <ele>7</ele>
        <time>2016-01-18T09:57:20.000Z</time>
      </trkpt>
      <trkpt lat="46.18824" lon="-0.88233">
        <ele>6.5999999046326</ele>
        <time>2016-01-18T09:57:32.000Z</time>
      </trkpt>
      <trkpt lat="46.18821" lon="-0.88206">
        <ele>6.4000000953674</ele>
        <time>2016-01-18T09:57:45.000Z</time>
      </trkpt>
      <trkpt lat="46.18817" lon="-0.8818">
        <ele>6.5999999046326</ele>
        <time>2016-01-18T09:57:58.000Z</time>
      </trkpt>
      <trkpt lat="46.18812" lon="-0.88155">
        <ele>6.8000001907349</ele>
        <time>2016-01-18T09:58:10.000Z</time>
      </trkpt>
      <trkpt lat="46.18808" lon="-0.88127">
        <ele>6.8000001907349</ele>
        <time>2016-01-18T09:58:23.000Z</time>
      </trkpt>
      <trkpt lat="46.18804" lon="-0.881">
        <ele>6.4000000953674</ele>
        <time>2016-01-18T09:58:36.000Z</time>
      </trkpt>
      <trkpt lat="46.18803" lon="-0.88073">
        <ele>6.1999998092651</ele>
        <time>2016-01-18T09:58:49.000Z</time>
      </trkpt>
      <trkpt lat="46.18804" lon="-0.88046">
        <ele>6</ele>
        <time>2016-01-18T09:59:02.000Z</time>
      </trkpt>
      <trkpt lat="46.18804" lon="-0.88019">
        <ele>6.4000000953674</ele>
        <time>2016-01-18T09:59:15.000Z</time>
      </trkpt>
      <trkpt lat="46.18803" lon="-0.87992">
        <ele>6.5999999046326</ele>
        <time>2016-01-18T09:59:29.000Z</time>
      </trkpt>
      <trkpt lat="46.18801" lon="-0.87966">
        <ele>6.5999999046326</ele>
        <time>2016-01-18T09:59:42.000Z</time>
      </trkpt>
      <trkpt lat="46.18797" lon="-0.8794">
        <ele>6.4000000953674</ele>
        <time>2016-01-18T09:59:55.000Z</time>
      </trkpt>
      <trkpt lat="46.18792" lon="-0.87914">
        <ele>6.1999998092651</ele>
        <time>2016-01-18T10:00:08.000Z</time>
      </trkpt>
      <trkpt lat="46.18787" lon="-0.87889">
        <ele>6.4000000953674</ele>
        <time>2016-01-18T10:00:21.000Z</time>
      </trkpt>
      <trkpt lat="46.18783" lon="-0.87863">
        <ele>6.5999999046326</ele>
        <time>2016-01-18T10:00:34.000Z</time>
      </trkpt>
      <trkpt lat="46.18777" lon="-0.87836">
        <ele>6.8000001907349</ele>
        <time>2016-01-18T10:00:48.000Z</time>
      </trkpt>
      <trkpt lat="46.1877" lon="-0.87811">
        <ele>6.5999999046326</ele>
        <time>2016-01-18T10:01:01.000Z</time>
      </trkpt>
      <trkpt lat="46.18765" lon="-0.87786">
        <ele>6.4000000953674</ele>
        <time>2016-01-18T10:01:14.000Z</time>
      </trkpt>
      <trkpt lat="46.18759" lon="-0.87761">
        <ele>6.1999998092651</ele>
        <time>2016-01-18T10:01:27.000Z</time>
      </trkpt>
      <trkpt lat="46.18754" lon="-0.87735">
        <ele>6.4000000953674</ele>
        <time>2016-01-18T10:01:41.000Z</time>
      </trkpt>
      <trkpt lat="46.18749" lon="-0.8771">
        <ele>6.5999999046326</ele>
        <time>2016-01-18T10:01:54.000Z</time>
      </trkpt>
      <trkpt lat="46.18743" lon="-0.87684">
        <ele>6.4000000953674</ele>
        <time>2016-01-18T10:02:08.000Z</time>
      </trkpt>
      <trkpt lat="46.18736" lon="-0.87659">
        <ele>6.1999998092651</ele>
        <time>2016-01-18T10:02:21.000Z</time>
      </trkpt>
      <trkpt lat="46.1873" lon="-0.87634">
        <ele>6</ele>
        <time>2016-01-18T10:02:34.000Z</time>
      </trkpt>
      <trkpt lat="46.18724" lon="-0.87609">
        <ele>6</ele>
        <time>2016-01-18T10:02:47.000Z</time>
      </trkpt>
      <trkpt lat="46.1872" lon="-0.87582">
        <ele>6</ele>
        <time>2016-01-18T10:03:01.000Z</time>
      </trkpt>
      <trkpt lat="46.18717" lon="-0.87556">
        <ele>6</ele>
        <time>2016-01-18T10:03:14.000Z</time>
      </trkpt>
      <trkpt lat="46.18714" lon="-0.87529">
        <ele>6.4000000953674</ele>
        <time>2016-01-18T10:03:28.000Z</time>
      </trkpt>
      <trkpt lat="46.18713" lon="-0.87502">
        <ele>6.5999999046326</ele>
        <time>2016-01-18T10:03:41.000Z</time>
      </trkpt>
      <trkpt lat="46.18711" lon="-0.87475">
        <ele>6.8000001907349</ele>
        <time>2016-01-18T10:03:54.000Z</time>
      </trkpt>
      <trkpt lat="46.18708" lon="-0.87449">
        <ele>6.8000001907349</ele>
        <time>2016-01-18T10:04:07.000Z</time>
      </trkpt>
      <trkpt lat="46.18705" lon="-0.87423">
        <ele>6.8000001907349</ele>
        <time>2016-01-18T10:04:20.000Z</time>
      </trkpt>
      <trkpt lat="46.18703" lon="-0.87397">
        <ele>6.5999999046326</ele>
        <time>2016-01-18T10:04:33.000Z</time>
      </trkpt>
      <trkpt lat="46.187" lon="-0.87369">
        <ele>6.5999999046326</ele>
        <time>2016-01-18T10:04:47.000Z</time>
      </trkpt>
      <trkpt lat="46.18697" lon="-0.87343">
        <ele>6.5999999046326</ele>
        <time>2016-01-18T10:05:00.000Z</time>
      </trkpt>
      <trkpt lat="46.18695" lon="-0.87317">
        <ele>6.5999999046326</ele>
        <time>2016-01-18T10:05:13.000Z</time>
      </trkpt>
      <trkpt lat="46.18696" lon="-0.87291">
        <ele>6.4000000953674</ele>
        <time>2016-01-18T10:05:26.000Z</time>
      </trkpt>
      <trkpt lat="46.18699" lon="-0.87264">
        <ele>6.1999998092651</ele>
        <time>2016-01-18T10:05:40.000Z</time>
      </trkpt>
      <trkpt lat="46.18702" lon="-0.87238">
        <ele>6</ele>
        <time>2016-01-18T10:05:53.000Z</time>
      </trkpt>
      <trkpt lat="46.18707" lon="-0.87212">
        <ele>6</ele>
        <time>2016-01-18T10:06:06.000Z</time>
      </trkpt>
      <trkpt lat="46.18708" lon="-0.87209">
        <ele>6</ele>
        <time>2016-01-18T10:06:08.000Z</time>
      </trkpt>
      <trkpt lat="46.18711" lon="-0.87199">
        <ele>6</ele>
        <time>2016-01-18T10:06:14.000Z</time>
      </trkpt>
      <trkpt lat="46.18718" lon="-0.87175">
        <ele>6</ele>
        <time>2016-01-18T10:06:27.000Z</time>
      </trkpt>
      <trkpt lat="46.18731" lon="-0.87154">
        <ele>6</ele>
        <time>2016-01-18T10:06:40.000Z</time>
      </trkpt>
      <trkpt lat="46.18743" lon="-0.87134">
        <ele>6</ele>
        <time>2016-01-18T10:06:53.000Z</time>
      </trkpt>
      <trkpt lat="46.18757" lon="-0.87115">
        <ele>6</ele>
        <time>2016-01-18T10:07:06.000Z</time>
      </trkpt>
      <trkpt lat="46.1877" lon="-0.87097">
        <ele>6</ele>
        <time>2016-01-18T10:07:20.000Z</time>
      </trkpt>
      <trkpt lat="46.18781" lon="-0.87075">
        <ele>6</ele>
        <time>2016-01-18T10:07:34.000Z</time>
      </trkpt>
      <trkpt lat="46.18792" lon="-0.87053">
        <ele>6</ele>
        <time>2016-01-18T10:07:48.000Z</time>
      </trkpt>
      <trkpt lat="46.18803" lon="-0.8703">
        <ele>6.4000000953674</ele>
        <time>2016-01-18T10:08:01.000Z</time>
      </trkpt>
      <trkpt lat="46.18813" lon="-0.87006">
        <ele>6.5999999046326</ele>
        <time>2016-01-18T10:08:14.000Z</time>
      </trkpt>
      <trkpt lat="46.18823" lon="-0.86983">
        <ele>6.8000001907349</ele>
        <time>2016-01-18T10:08:28.000Z</time>
      </trkpt>
      <trkpt lat="46.18834" lon="-0.86961">
        <ele>6.8000001907349</ele>
        <time>2016-01-18T10:08:41.000Z</time>
      </trkpt>
      <trkpt lat="46.18845" lon="-0.86939">
        <ele>7</ele>
        <time>2016-01-18T10:08:54.000Z</time>
      </trkpt>
      <trkpt lat="46.18856" lon="-0.86916">
        <ele>7</ele>
        <time>2016-01-18T10:09:07.000Z</time>
      </trkpt>
      <trkpt lat="46.18865" lon="-0.86899">
        <ele>7</ele>
        <time>2016-01-18T10:09:18.000Z</time>
      </trkpt>
      <trkpt lat="46.18876" lon="-0.86876">
        <ele>7.1999998092651</ele>
        <time>2016-01-18T10:09:31.000Z</time>
      </trkpt>
      <trkpt lat="46.1888" lon="-0.86863">
        <ele>7.4000000953674</ele>
        <time>2016-01-18T10:09:39.000Z</time>
      </trkpt>
      <trkpt lat="46.18882" lon="-0.86855">
        <ele>7.4000000953674</ele>
        <time>2016-01-18T10:09:45.000Z</time>
      </trkpt>
      <trkpt lat="46.18888" lon="-0.8683">
        <ele>7.8000001907349</ele>
        <time>2016-01-18T10:09:57.000Z</time>
      </trkpt>
      <trkpt lat="46.18892" lon="-0.86823">
        <ele>7.8000001907349</ele>
        <time>2016-01-18T10:10:02.000Z</time>
      </trkpt>
      <trkpt lat="46.18908" lon="-0.8683">
        <ele>7.5999999046326</ele>
        <time>2016-01-18T10:10:38.000Z</time>
      </trkpt>
      <trkpt lat="46.18927" lon="-0.86838">
        <ele>7.1999998092651</ele>
        <time>2016-01-18T10:10:52.000Z</time>
      </trkpt>
      <trkpt lat="46.18945" lon="-0.86847">
        <ele>7</ele>
        <time>2016-01-18T10:11:06.000Z</time>
      </trkpt>
      <trkpt lat="46.18963" lon="-0.86853">
        <ele>7</ele>
        <time>2016-01-18T10:11:19.000Z</time>
      </trkpt>
      <trkpt lat="46.1898" lon="-0.86864">
        <ele>7</ele>
        <time>2016-01-18T10:11:32.000Z</time>
      </trkpt>
      <trkpt lat="46.18998" lon="-0.86874">
        <ele>7.5999999046326</ele>
        <time>2016-01-18T10:11:44.000Z</time>
      </trkpt>
      <trkpt lat="46.19016" lon="-0.86883">
        <ele>8</ele>
        <time>2016-01-18T10:11:57.000Z</time>
      </trkpt>
      <trkpt lat="46.19033" lon="-0.86892">
        <ele>8.3999996185303</ele>
        <time>2016-01-18T10:12:09.000Z</time>
      </trkpt>
      <trkpt lat="46.19052" lon="-0.869">
        <ele>8.8000001907349</ele>
        <time>2016-01-18T10:12:21.000Z</time>
      </trkpt>
      <trkpt lat="46.19069" lon="-0.8691">
        <ele>8.8000001907349</ele>
        <time>2016-01-18T10:12:33.000Z</time>
      </trkpt>
      <trkpt lat="46.19088" lon="-0.86917">
        <ele>8.6000003814697</ele>
        <time>2016-01-18T10:12:46.000Z</time>
      </trkpt>
      <trkpt lat="46.19106" lon="-0.86926">
        <ele>8.6000003814697</ele>
        <time>2016-01-18T10:12:59.000Z</time>
      </trkpt>
      <trkpt lat="46.19115" lon="-0.86931">
        <ele>8.8000001907349</ele>
        <time>2016-01-18T10:13:06.000Z</time>
      </trkpt>
      <trkpt lat="46.19123" lon="-0.86935">
        <ele>9</ele>
        <time>2016-01-18T10:13:12.000Z</time>
      </trkpt>
      <trkpt lat="46.19142" lon="-0.86944">
        <ele>9.6000003814697</ele>
        <time>2016-01-18T10:13:24.000Z</time>
      </trkpt>
      <trkpt lat="46.19159" lon="-0.86952">
        <ele>10</ele>
        <time>2016-01-18T10:13:34.000Z</time>
      </trkpt>
      <trkpt lat="46.19178" lon="-0.8696">
        <ele>9.8000001907349</ele>
        <time>2016-01-18T10:13:46.000Z</time>
      </trkpt>
      <trkpt lat="46.19196" lon="-0.86969">
        <ele>9.3999996185303</ele>
        <time>2016-01-18T10:13:58.000Z</time>
      </trkpt>
      <trkpt lat="46.19214" lon="-0.86978">
        <ele>9.1999998092651</ele>
        <time>2016-01-18T10:14:11.000Z</time>
      </trkpt>
      <trkpt lat="46.19231" lon="-0.86986">
        <ele>9.1999998092651</ele>
        <time>2016-01-18T10:14:23.000Z</time>
      </trkpt>
      <trkpt lat="46.19249" lon="-0.86992">
        <ele>9.8000001907349</ele>
        <time>2016-01-18T10:14:34.000Z</time>
      </trkpt>
      <trkpt lat="46.19267" lon="-0.87002">
        <ele>10.199999809265</ele>
        <time>2016-01-18T10:14:45.000Z</time>
      </trkpt>
      <trkpt lat="46.19285" lon="-0.8701">
        <ele>10.60000038147</ele>
        <time>2016-01-18T10:14:56.000Z</time>
      </trkpt>
      <trkpt lat="46.19303" lon="-0.87018">
        <ele>10.800000190735</ele>
        <time>2016-01-18T10:15:07.000Z</time>
      </trkpt>
      <trkpt lat="46.19322" lon="-0.87025">
        <ele>11.199999809265</ele>
        <time>2016-01-18T10:15:19.000Z</time>
      </trkpt>
      <trkpt lat="46.1934" lon="-0.87033">
        <ele>11.39999961853</ele>
        <time>2016-01-18T10:15:30.000Z</time>
      </trkpt>
      <trkpt lat="46.19358" lon="-0.87042">
        <ele>11.60000038147</ele>
        <time>2016-01-18T10:15:42.000Z</time>
      </trkpt>
      <trkpt lat="46.19375" lon="-0.8705">
        <ele>11.800000190735</ele>
        <time>2016-01-18T10:15:53.000Z</time>
      </trkpt>
      <trkpt lat="46.19394" lon="-0.87057">
        <ele>12</ele>
        <time>2016-01-18T10:16:05.000Z</time>
      </trkpt>
      <trkpt lat="46.19412" lon="-0.87066">
        <ele>12.199999809265</ele>
        <time>2016-01-18T10:16:17.000Z</time>
      </trkpt>
      <trkpt lat="46.1943" lon="-0.87075">
        <ele>12.39999961853</ele>
        <time>2016-01-18T10:16:29.000Z</time>
      </trkpt>
      <trkpt lat="46.19447" lon="-0.87085">
        <ele>12.60000038147</ele>
        <time>2016-01-18T10:16:40.000Z</time>
      </trkpt>
      <trkpt lat="46.19465" lon="-0.87095">
        <ele>12.60000038147</ele>
        <time>2016-01-18T10:16:51.000Z</time>
      </trkpt>
      <trkpt lat="46.19483" lon="-0.87106">
        <ele>12.39999961853</ele>
        <time>2016-01-18T10:17:03.000Z</time>
      </trkpt>
      <trkpt lat="46.19501" lon="-0.87113">
        <ele>12.39999961853</ele>
        <time>2016-01-18T10:17:15.000Z</time>
      </trkpt>
      <trkpt lat="46.1952" lon="-0.8712">
        <ele>12.800000190735</ele>
        <time>2016-01-18T10:17:27.000Z</time>
      </trkpt>
      <trkpt lat="46.19538" lon="-0.87126">
        <ele>13.199999809265</ele>
        <time>2016-01-18T10:17:39.000Z</time>
      </trkpt>
      <trkpt lat="46.19555" lon="-0.87134">
        <ele>13.800000190735</ele>
        <time>2016-01-18T10:17:50.000Z</time>
      </trkpt>
      <trkpt lat="46.19572" lon="-0.87142">
        <ele>14</ele>
        <time>2016-01-18T10:18:01.000Z</time>
      </trkpt>
      <trkpt lat="46.19591" lon="-0.87149">
        <ele>14.199999809265</ele>
        <time>2016-01-18T10:18:13.000Z</time>
      </trkpt>
      <trkpt lat="46.19609" lon="-0.87159">
        <ele>14.39999961853</ele>
        <time>2016-01-18T10:18:25.000Z</time>
      </trkpt>
      <trkpt lat="46.19627" lon="-0.87167">
        <ele>14.60000038147</ele>
        <time>2016-01-18T10:18:36.000Z</time>
      </trkpt>
      <trkpt lat="46.19645" lon="-0.87176">
        <ele>15.39999961853</ele>
        <time>2016-01-18T10:18:48.000Z</time>
      </trkpt>
      <trkpt lat="46.19663" lon="-0.87184">
        <ele>15.800000190735</ele>
        <time>2016-01-18T10:19:00.000Z</time>
      </trkpt>
      <trkpt lat="46.19677" lon="-0.87194">
        <ele>16</ele>
        <time>2016-01-18T10:19:11.000Z</time>
      </trkpt>
      <trkpt lat="46.19673" lon="-0.87205">
        <ele>16.200000762939</ele>
        <time>2016-01-18T10:19:16.000Z</time>
      </trkpt>
      <trkpt lat="46.19662" lon="-0.87227">
        <ele>16</ele>
        <time>2016-01-18T10:19:27.000Z</time>
      </trkpt>
      <trkpt lat="46.19651" lon="-0.8725">
        <ele>15.39999961853</ele>
        <time>2016-01-18T10:19:39.000Z</time>
      </trkpt>
      <trkpt lat="46.19641" lon="-0.87272">
        <ele>14.800000190735</ele>
        <time>2016-01-18T10:19:51.000Z</time>
      </trkpt>
      <trkpt lat="46.19629" lon="-0.87292">
        <ele>14</ele>
        <time>2016-01-18T10:20:03.000Z</time>
      </trkpt>
      <trkpt lat="46.19618" lon="-0.87314">
        <ele>13.39999961853</ele>
        <time>2016-01-18T10:20:15.000Z</time>
      </trkpt>
      <trkpt lat="46.19607" lon="-0.87336">
        <ele>13.39999961853</ele>
        <time>2016-01-18T10:20:27.000Z</time>
      </trkpt>
      <trkpt lat="46.19595" lon="-0.87356">
        <ele>13.39999961853</ele>
        <time>2016-01-18T10:20:39.000Z</time>
      </trkpt>
      <trkpt lat="46.19584" lon="-0.87378">
        <ele>13.199999809265</ele>
        <time>2016-01-18T10:20:52.000Z</time>
      </trkpt>
      <trkpt lat="46.19579" lon="-0.87403">
        <ele>13.199999809265</ele>
        <time>2016-01-18T10:21:04.000Z</time>
      </trkpt>
      <trkpt lat="46.19589" lon="-0.87426">
        <ele>13.39999961853</ele>
        <time>2016-01-18T10:21:15.000Z</time>
      </trkpt>
      <trkpt lat="46.19598" lon="-0.87449">
        <ele>13.60000038147</ele>
        <time>2016-01-18T10:21:27.000Z</time>
      </trkpt>
      <trkpt lat="46.19608" lon="-0.87471">
        <ele>14</ele>
        <time>2016-01-18T10:21:39.000Z</time>
      </trkpt>
      <trkpt lat="46.1962" lon="-0.87493">
        <ele>14.60000038147</ele>
        <time>2016-01-18T10:21:51.000Z</time>
      </trkpt>
      <trkpt lat="46.19633" lon="-0.87514">
        <ele>15.199999809265</ele>
        <time>2016-01-18T10:22:04.000Z</time>
      </trkpt>
      <trkpt lat="46.19645" lon="-0.87534">
        <ele>15.800000190735</ele>
        <time>2016-01-18T10:22:15.000Z</time>
      </trkpt>
      <trkpt lat="46.19656" lon="-0.87554">
        <ele>15.800000190735</ele>
        <time>2016-01-18T10:22:26.000Z</time>
      </trkpt>
      <trkpt lat="46.19667" lon="-0.87575">
        <ele>15.800000190735</ele>
        <time>2016-01-18T10:22:37.000Z</time>
      </trkpt>
      <trkpt lat="46.19679" lon="-0.87596">
        <ele>15.60000038147</ele>
        <time>2016-01-18T10:22:48.000Z</time>
      </trkpt>
      <trkpt lat="46.1969" lon="-0.87616">
        <ele>16</ele>
        <time>2016-01-18T10:22:59.000Z</time>
      </trkpt>
      <trkpt lat="46.19701" lon="-0.87636">
        <ele>16.60000038147</ele>
        <time>2016-01-18T10:23:10.000Z</time>
      </trkpt>
      <trkpt lat="46.19713" lon="-0.87657">
        <ele>17</ele>
        <time>2016-01-18T10:23:21.000Z</time>
      </trkpt>
      <trkpt lat="46.19724" lon="-0.87678">
        <ele>16.60000038147</ele>
        <time>2016-01-18T10:23:33.000Z</time>
      </trkpt>
      <trkpt lat="46.19737" lon="-0.877">
        <ele>16.39999961853</ele>
        <time>2016-01-18T10:23:45.000Z</time>
      </trkpt>
      <trkpt lat="46.19749" lon="-0.87721">
        <ele>16.799999237061</ele>
        <time>2016-01-18T10:23:57.000Z</time>
      </trkpt>
      <trkpt lat="46.19759" lon="-0.87742">
        <ele>17.60000038147</ele>
        <time>2016-01-18T10:24:08.000Z</time>
      </trkpt>
      <trkpt lat="46.19769" lon="-0.87765">
        <ele>18.39999961853</ele>
        <time>2016-01-18T10:24:20.000Z</time>
      </trkpt>
      <trkpt lat="46.19778" lon="-0.87789">
        <ele>18.60000038147</ele>
        <time>2016-01-18T10:24:32.000Z</time>
      </trkpt>
      <trkpt lat="46.19788" lon="-0.87811">
        <ele>18.799999237061</ele>
        <time>2016-01-18T10:24:43.000Z</time>
      </trkpt>
      <trkpt lat="46.19798" lon="-0.87835">
        <ele>18.799999237061</ele>
        <time>2016-01-18T10:24:55.000Z</time>
      </trkpt>
      <trkpt lat="46.19809" lon="-0.87857">
        <ele>19</ele>
        <time>2016-01-18T10:25:07.000Z</time>
      </trkpt>
      <trkpt lat="46.19819" lon="-0.87879">
        <ele>19.200000762939</ele>
        <time>2016-01-18T10:25:19.000Z</time>
      </trkpt>
      <trkpt lat="46.19829" lon="-0.87903">
        <ele>19.39999961853</ele>
        <time>2016-01-18T10:25:31.000Z</time>
      </trkpt>
      <trkpt lat="46.19839" lon="-0.87926">
        <ele>19.60000038147</ele>
        <time>2016-01-18T10:25:43.000Z</time>
      </trkpt>
      <trkpt lat="46.19849" lon="-0.8795">
        <ele>19.799999237061</ele>
        <time>2016-01-18T10:25:54.000Z</time>
      </trkpt>
      <trkpt lat="46.19859" lon="-0.87971">
        <ele>19.60000038147</ele>
        <time>2016-01-18T10:26:05.000Z</time>
      </trkpt>
      <trkpt lat="46.1987" lon="-0.87995">
        <ele>19.39999961853</ele>
        <time>2016-01-18T10:26:17.000Z</time>
      </trkpt>
      <trkpt lat="46.19879" lon="-0.88017">
        <ele>20</ele>
        <time>2016-01-18T10:26:28.000Z</time>
      </trkpt>
      <trkpt lat="46.19889" lon="-0.8804">
        <ele>20.60000038147</ele>
        <time>2016-01-18T10:26:40.000Z</time>
      </trkpt>
      <trkpt lat="46.19899" lon="-0.88062">
        <ele>21</ele>
        <time>2016-01-18T10:26:51.000Z</time>
      </trkpt>
      <trkpt lat="46.19911" lon="-0.88082">
        <ele>20.60000038147</ele>
        <time>2016-01-18T10:27:02.000Z</time>
      </trkpt>
      <trkpt lat="46.19924" lon="-0.88101">
        <ele>20.200000762939</ele>
        <time>2016-01-18T10:27:13.000Z</time>
      </trkpt>
      <trkpt lat="46.19938" lon="-0.88119">
        <ele>20.200000762939</ele>
        <time>2016-01-18T10:27:24.000Z</time>
      </trkpt>
      <trkpt lat="46.19951" lon="-0.88137">
        <ele>20.39999961853</ele>
        <time>2016-01-18T10:27:35.000Z</time>
      </trkpt>
      <trkpt lat="46.19965" lon="-0.88156">
        <ele>20.200000762939</ele>
        <time>2016-01-18T10:27:46.000Z</time>
      </trkpt>
      <trkpt lat="46.19977" lon="-0.88177">
        <ele>20</ele>
        <time>2016-01-18T10:27:58.000Z</time>
      </trkpt>
      <trkpt lat="46.19988" lon="-0.882">
        <ele>19.799999237061</ele>
        <time>2016-01-18T10:28:10.000Z</time>
      </trkpt>
      <trkpt lat="46.19999" lon="-0.88222">
        <ele>19.799999237061</ele>
        <time>2016-01-18T10:28:21.000Z</time>
      </trkpt>
      <trkpt lat="46.20005" lon="-0.88247">
        <ele>20.200000762939</ele>
        <time>2016-01-18T10:28:32.000Z</time>
      </trkpt>
      <trkpt lat="46.20009" lon="-0.88273">
        <ele>20.60000038147</ele>
        <time>2016-01-18T10:28:44.000Z</time>
      </trkpt>
      <trkpt lat="46.20014" lon="-0.88299">
        <ele>20.200000762939</ele>
        <time>2016-01-18T10:28:55.000Z</time>
      </trkpt>
      <trkpt lat="46.2002" lon="-0.88324">
        <ele>19.799999237061</ele>
        <time>2016-01-18T10:29:06.000Z</time>
      </trkpt>
      <trkpt lat="46.20024" lon="-0.8835">
        <ele>19.39999961853</ele>
        <time>2016-01-18T10:29:17.000Z</time>
      </trkpt>
      <trkpt lat="46.20029" lon="-0.88377">
        <ele>19.200000762939</ele>
        <time>2016-01-18T10:29:28.000Z</time>
      </trkpt>
      <trkpt lat="46.20034" lon="-0.88404">
        <ele>18.799999237061</ele>
        <time>2016-01-18T10:29:39.000Z</time>
      </trkpt>
      <trkpt lat="46.20039" lon="-0.8843">
        <ele>18.799999237061</ele>
        <time>2016-01-18T10:29:50.000Z</time>
      </trkpt>
      <trkpt lat="46.20042" lon="-0.88457">
        <ele>18.799999237061</ele>
        <time>2016-01-18T10:30:01.000Z</time>
      </trkpt>
      <trkpt lat="46.20044" lon="-0.88484">
        <ele>18.799999237061</ele>
        <time>2016-01-18T10:30:12.000Z</time>
      </trkpt>
      <trkpt lat="46.20046" lon="-0.88512">
        <ele>18.799999237061</ele>
        <time>2016-01-18T10:30:23.000Z</time>
      </trkpt>
      <trkpt lat="46.20048" lon="-0.8854">
        <ele>18.799999237061</ele>
        <time>2016-01-18T10:30:34.000Z</time>
      </trkpt>
      <trkpt lat="46.20052" lon="-0.88566">
        <ele>18.60000038147</ele>
        <time>2016-01-18T10:30:45.000Z</time>
      </trkpt>
      <trkpt lat="46.20058" lon="-0.88591">
        <ele>18.39999961853</ele>
        <time>2016-01-18T10:30:56.000Z</time>
      </trkpt>
      <trkpt lat="46.20065" lon="-0.88616">
        <ele>18.39999961853</ele>
        <time>2016-01-18T10:31:06.000Z</time>
      </trkpt>
      <trkpt lat="46.20072" lon="-0.88641">
        <ele>18.200000762939</ele>
        <time>2016-01-18T10:31:17.000Z</time>
      </trkpt>
      <trkpt lat="46.20082" lon="-0.88665">
        <ele>18.799999237061</ele>
        <time>2016-01-18T10:31:28.000Z</time>
      </trkpt>
      <trkpt lat="46.20095" lon="-0.88685">
        <ele>19.39999961853</ele>
        <time>2016-01-18T10:31:39.000Z</time>
      </trkpt>
      <trkpt lat="46.20109" lon="-0.88701">
        <ele>19.799999237061</ele>
        <time>2016-01-18T10:31:50.000Z</time>
      </trkpt>
      <trkpt lat="46.20122" lon="-0.88721">
        <ele>20.39999961853</ele>
        <time>2016-01-18T10:32:00.000Z</time>
      </trkpt>
      <trkpt lat="46.20135" lon="-0.88743">
        <ele>20.60000038147</ele>
        <time>2016-01-18T10:32:11.000Z</time>
      </trkpt>
      <trkpt lat="46.20147" lon="-0.88762">
        <ele>21</ele>
        <time>2016-01-18T10:32:22.000Z</time>
      </trkpt>
      <trkpt lat="46.20164" lon="-0.88774">
        <ele>21.200000762939</ele>
        <time>2016-01-18T10:32:33.000Z</time>
      </trkpt>
      <trkpt lat="46.20183" lon="-0.88776">
        <ele>21.60000038147</ele>
        <time>2016-01-18T10:32:44.000Z</time>
      </trkpt>
      <trkpt lat="46.20202" lon="-0.88778">
        <ele>22</ele>
        <time>2016-01-18T10:32:55.000Z</time>
      </trkpt>
      <trkpt lat="46.2022" lon="-0.88784">
        <ele>22.60000038147</ele>
        <time>2016-01-18T10:33:06.000Z</time>
      </trkpt>
      <trkpt lat="46.20235" lon="-0.88798">
        <ele>23</ele>
        <time>2016-01-18T10:33:17.000Z</time>
      </trkpt>
      <trkpt lat="46.20252" lon="-0.88805">
        <ele>22.799999237061</ele>
        <time>2016-01-18T10:33:29.000Z</time>
      </trkpt>
      <trkpt lat="46.20257" lon="-0.88802">
        <ele>22.60000038147</ele>
        <time>2016-01-18T10:33:33.000Z</time>
      </trkpt>
      <trkpt lat="46.20269" lon="-0.88797">
        <ele>22.60000038147</ele>
        <time>2016-01-18T10:34:06.000Z</time>
      </trkpt>
      <trkpt lat="46.20284" lon="-0.88791">
        <ele>22.39999961853</ele>
        <time>2016-01-18T10:34:33.000Z</time>
      </trkpt>
      <trkpt lat="46.20302" lon="-0.88784">
        <ele>22.200000762939</ele>
        <time>2016-01-18T10:34:46.000Z</time>
      </trkpt>
      <trkpt lat="46.2032" lon="-0.88776">
        <ele>22</ele>
        <time>2016-01-18T10:35:00.000Z</time>
      </trkpt>
      <trkpt lat="46.20325" lon="-0.88774">
        <ele>22.200000762939</ele>
        <time>2016-01-18T10:35:05.000Z</time>
      </trkpt>
      <trkpt lat="46.20337" lon="-0.88769">
        <ele>22.39999961853</ele>
        <time>2016-01-18T10:35:46.000Z</time>
      </trkpt>
      <trkpt lat="46.20354" lon="-0.88762">
        <ele>22.60000038147</ele>
        <time>2016-01-18T10:36:06.000Z</time>
      </trkpt>
      <trkpt lat="46.20371" lon="-0.88755">
        <ele>22.799999237061</ele>
        <time>2016-01-18T10:36:27.000Z</time>
      </trkpt>
      <trkpt lat="46.2039" lon="-0.88745">
        <ele>23.200000762939</ele>
        <time>2016-01-18T10:36:41.000Z</time>
      </trkpt>
      <trkpt lat="46.20407" lon="-0.88737">
        <ele>23.200000762939</ele>
        <time>2016-01-18T10:36:56.000Z</time>
      </trkpt>
      <trkpt lat="46.20425" lon="-0.88728">
        <ele>23</ele>
        <time>2016-01-18T10:37:11.000Z</time>
      </trkpt>
      <trkpt lat="46.20443" lon="-0.88723">
        <ele>23</ele>
        <time>2016-01-18T10:37:27.000Z</time>
      </trkpt>
      <trkpt lat="46.20449" lon="-0.8872">
        <ele>23</ele>
        <time>2016-01-18T10:39:17.000Z</time>
      </trkpt>
      <trkpt lat="46.20464" lon="-0.88712">
        <ele>23</ele>
        <time>2016-01-18T10:40:05.000Z</time>
      </trkpt>
      <trkpt lat="46.20482" lon="-0.88704">
        <ele>23</ele>
        <time>2016-01-18T10:40:21.000Z</time>
      </trkpt>
      <trkpt lat="46.20498" lon="-0.88696">
        <ele>22.60000038147</ele>
        <time>2016-01-18T10:40:34.000Z</time>
      </trkpt>
      <trkpt lat="46.20505" lon="-0.88692">
        <ele>22.39999961853</ele>
        <time>2016-01-18T10:40:39.000Z</time>
      </trkpt>
      <trkpt lat="46.20522" lon="-0.88683">
        <ele>22</ele>
        <time>2016-01-18T10:40:53.000Z</time>
      </trkpt>
      <trkpt lat="46.20539" lon="-0.88673">
        <ele>21.60000038147</ele>
        <time>2016-01-18T10:41:07.000Z</time>
      </trkpt>
      <trkpt lat="46.20556" lon="-0.88664">
        <ele>21.200000762939</ele>
        <time>2016-01-18T10:41:21.000Z</time>
      </trkpt>
      <trkpt lat="46.20572" lon="-0.88652">
        <ele>21</ele>
        <time>2016-01-18T10:41:36.000Z</time>
      </trkpt>
      <trkpt lat="46.2059" lon="-0.88645">
        <ele>21</ele>
        <time>2016-01-18T10:42:02.000Z</time>
      </trkpt>
      <trkpt lat="46.20591" lon="-0.88645">
        <ele>21</ele>
        <time>2016-01-18T10:42:03.000Z</time>
      </trkpt>
      <trkpt lat="46.20603" lon="-0.8864">
        <ele>21</ele>
        <time>2016-01-18T10:42:16.000Z</time>
      </trkpt>
      <trkpt lat="46.20608" lon="-0.88637">
        <ele>21</ele>
        <time>2016-01-18T10:42:21.000Z</time>
      </trkpt>
      <trkpt lat="46.20624" lon="-0.88629">
        <ele>21</ele>
        <time>2016-01-18T10:42:36.000Z</time>
      </trkpt>
      <trkpt lat="46.2064" lon="-0.88621">
        <ele>21</ele>
        <time>2016-01-18T10:42:50.000Z</time>
      </trkpt>
      <trkpt lat="46.20649" lon="-0.88617">
        <ele>21</ele>
        <time>2016-01-18T10:42:59.000Z</time>
      </trkpt>
      <trkpt lat="46.20661" lon="-0.88612">
        <ele>21</ele>
        <time>2016-01-18T10:43:11.000Z</time>
      </trkpt>
      <trkpt lat="46.20679" lon="-0.886">
        <ele>21</ele>
        <time>2016-01-18T10:43:28.000Z</time>
      </trkpt>
      <trkpt lat="46.20691" lon="-0.88593">
        <ele>21</ele>
        <time>2016-01-18T10:43:40.000Z</time>
      </trkpt>
      <trkpt lat="46.20694" lon="-0.88591">
        <ele>21</ele>
        <time>2016-01-18T10:43:44.000Z</time>
      </trkpt>
      <trkpt lat="46.20703" lon="-0.88587">
        <ele>20.799999237061</ele>
        <time>2016-01-18T10:43:53.000Z</time>
      </trkpt>
      <trkpt lat="46.20714" lon="-0.88583">
        <ele>20.799999237061</ele>
        <time>2016-01-18T10:44:04.000Z</time>
      </trkpt>
      <trkpt lat="46.20724" lon="-0.88578">
        <ele>20.60000038147</ele>
        <time>2016-01-18T10:44:12.000Z</time>
      </trkpt>
      <trkpt lat="46.20741" lon="-0.88569">
        <ele>20.39999961853</ele>
        <time>2016-01-18T10:44:28.000Z</time>
      </trkpt>
      <trkpt lat="46.20759" lon="-0.88559">
        <ele>20.200000762939</ele>
        <time>2016-01-18T10:44:45.000Z</time>
      </trkpt>
      <trkpt lat="46.2076" lon="-0.88558">
        <ele>20.200000762939</ele>
        <time>2016-01-18T10:44:46.000Z</time>
      </trkpt>
      <trkpt lat="46.20767" lon="-0.88554">
        <ele>20</ele>
        <time>2016-01-18T10:44:53.000Z</time>
      </trkpt>
      <trkpt lat="46.20784" lon="-0.88545">
        <ele>19.799999237061</ele>
        <time>2016-01-18T10:45:08.000Z</time>
      </trkpt>
      <trkpt lat="46.20801" lon="-0.88535">
        <ele>19.60000038147</ele>
        <time>2016-01-18T10:45:23.000Z</time>
      </trkpt>
      <trkpt lat="46.20819" lon="-0.8853">
        <ele>19.39999961853</ele>
        <time>2016-01-18T10:45:37.000Z</time>
      </trkpt>
      <trkpt lat="46.2083" lon="-0.88525">
        <ele>19.39999961853</ele>
        <time>2016-01-18T10:45:46.000Z</time>
      </trkpt>
      <trkpt lat="46.20847" lon="-0.88518">
        <ele>19.39999961853</ele>
        <time>2016-01-18T10:46:00.000Z</time>
      </trkpt>
      <trkpt lat="46.20862" lon="-0.88514">
        <ele>19.60000038147</ele>
        <time>2016-01-18T10:46:13.000Z</time>
      </trkpt>
      <trkpt lat="46.20867" lon="-0.88513">
        <ele>19.60000038147</ele>
        <time>2016-01-18T10:46:17.000Z</time>
      </trkpt>
      <trkpt lat="46.20885" lon="-0.88506">
        <ele>19.799999237061</ele>
        <time>2016-01-18T10:46:32.000Z</time>
      </trkpt>
      <trkpt lat="46.20903" lon="-0.88498">
        <ele>20</ele>
        <time>2016-01-18T10:46:48.000Z</time>
      </trkpt>
      <trkpt lat="46.20921" lon="-0.88489">
        <ele>20</ele>
        <time>2016-01-18T10:47:03.000Z</time>
      </trkpt>
      <trkpt lat="46.20931" lon="-0.88485">
        <ele>20</ele>
        <time>2016-01-18T10:47:11.000Z</time>
      </trkpt>
      <trkpt lat="46.20939" lon="-0.88481">
        <ele>20</ele>
        <time>2016-01-18T10:47:18.000Z</time>
      </trkpt>
      <trkpt lat="46.20957" lon="-0.8847">
        <ele>20</ele>
        <time>2016-01-18T10:47:33.000Z</time>
      </trkpt>
      <trkpt lat="46.20973" lon="-0.8846">
        <ele>20</ele>
        <time>2016-01-18T10:47:48.000Z</time>
      </trkpt>
      <trkpt lat="46.2099" lon="-0.88449">
        <ele>20</ele>
        <time>2016-01-18T10:48:03.000Z</time>
      </trkpt>
      <trkpt lat="46.21007" lon="-0.88439">
        <ele>20</ele>
        <time>2016-01-18T10:48:18.000Z</time>
      </trkpt>
      <trkpt lat="46.21024" lon="-0.88428">
        <ele>20</ele>
        <time>2016-01-18T10:48:34.000Z</time>
      </trkpt>
      <trkpt lat="46.21041" lon="-0.88417">
        <ele>20</ele>
        <time>2016-01-18T10:48:49.000Z</time>
      </trkpt>
      <trkpt lat="46.21058" lon="-0.88407">
        <ele>20</ele>
        <time>2016-01-18T10:49:03.000Z</time>
      </trkpt>
      <trkpt lat="46.21076" lon="-0.88404">
        <ele>20.39999961853</ele>
        <time>2016-01-18T10:49:17.000Z</time>
      </trkpt>
      <trkpt lat="46.21094" lon="-0.88409">
        <ele>20.799999237061</ele>
        <time>2016-01-18T10:49:31.000Z</time>
      </trkpt>
      <trkpt lat="46.21113" lon="-0.88416">
        <ele>21.200000762939</ele>
        <time>2016-01-18T10:49:45.000Z</time>
      </trkpt>
      <trkpt lat="46.2113" lon="-0.88424">
        <ele>21</ele>
        <time>2016-01-18T10:49:59.000Z</time>
      </trkpt>
      <trkpt lat="46.21147" lon="-0.88435">
        <ele>20.200000762939</ele>
        <time>2016-01-18T10:50:14.000Z</time>
      </trkpt>
      <trkpt lat="46.21164" lon="-0.88445">
        <ele>19.39999961853</ele>
        <time>2016-01-18T10:50:28.000Z</time>
      </trkpt>
      <trkpt lat="46.21167" lon="-0.88446">
        <ele>19.200000762939</ele>
        <time>2016-01-18T10:50:30.000Z</time>
      </trkpt>
      <trkpt lat="46.21176" lon="-0.88449">
        <ele>19</ele>
        <time>2016-01-18T10:50:37.000Z</time>
      </trkpt>
      <trkpt lat="46.21193" lon="-0.88456">
        <ele>19</ele>
        <time>2016-01-18T10:50:53.000Z</time>
      </trkpt>
      <trkpt lat="46.212" lon="-0.88456">
        <ele>19</ele>
        <time>2016-01-18T10:50:59.000Z</time>
      </trkpt>
      <trkpt lat="46.21218" lon="-0.8846">
        <ele>19</ele>
        <time>2016-01-18T10:51:13.000Z</time>
      </trkpt>
      <trkpt lat="46.21236" lon="-0.88463">
        <ele>18.60000038147</ele>
        <time>2016-01-18T10:51:27.000Z</time>
      </trkpt>
      <trkpt lat="46.21254" lon="-0.88463">
        <ele>18</ele>
        <time>2016-01-18T10:51:42.000Z</time>
      </trkpt>
      <trkpt lat="46.21261" lon="-0.88458">
        <ele>17.60000038147</ele>
        <time>2016-01-18T10:51:48.000Z</time>
      </trkpt>
      <trkpt lat="46.21259" lon="-0.88441">
        <ele>17.60000038147</ele>
        <time>2016-01-18T10:53:08.000Z</time>
      </trkpt>
      <trkpt lat="46.21263" lon="-0.88439">
        <ele>17.39999961853</ele>
        <time>2016-01-18T10:53:56.000Z</time>
      </trkpt>
    </trkseg>
  </trk>
</gpx>